Darstellungsparameter: Aktuell verwendete Einstellungen:
Skalierung der Graphiken ... ?
xyx+y,   Skalierungsfaktor:      Skalierung: Modus: x, Faktor: 1
Darstellungszeitraum ... ?
Vom - - bis: - -   Zeitraum: 24.05.2009 - 06.06.2009
Min/Max/Avg-Anzeige ... ?
Zeige MMA aktuell
Zeige MMA Monat
Zeige MMA alles
Zeige --A aktuell
Zeige --A Monat
Zeige --A alles
Keine MMA-Anzeige
MMA:
Keine MMA-Graphiken
MMA-Basis: 24.05.2009 - 06.06.2009
Quicknavigation für Darstellung... ?
Tage:      1T, 2T, 3T, 5T -1T -2T -3T -5T +1T +2T +3T +5T
Wochen: 1W, 2W, 3W -1W -2W -3W +1W +2W +3W
Monate: 1M, 3M, 6M -1M -3M -6M +1M +3M +6M
Jahre:    1J, 3J, 5J, 10J -1J -3J -5J -10J +1J +3J +5J +10J
Nutze für die Darstellung ... ?
Originaldaten oder Mittelwerte auf ...
Stundenbasis Tagesbasis Wochenbasis
Monatsbasis Jahresbasis      Datenbasis: Original-Daten
Darstellen als:
Statistik (Auto) Statistik J:M      Darstellung:
Zur Graphik,    zurück zur Übersicht aller Sensoren.
 
Tabellarische Datenbersicht: ?
 
Sensor: Nr:Datum:Temp:Abs-Feuchte:Windchill:Wind:
Aussen-T/F 1 24-05-2009 00:09:04 18.3 C 7.66 g/m*3 18.3 C 0 km/h
2 24-05-2009 00:21:04 17.9 C 7.63 g/m*3 17.9 C 0 km/h
3 24-05-2009 00:33:04 17.7 C 7.85 g/m*3 17.7 C 0 km/h
4 24-05-2009 00:45:04 17.7 C 7.85 g/m*3 17.7 C 0 km/h
5 24-05-2009 00:57:04 17.6 C 7.8 g/m*3 17.6 C 0 km/h
6 24-05-2009 01:09:04 17.5 C 7.75 g/m*3 17.5 C 0 km/h
7 24-05-2009 01:21:04 17.2 C 7.91 g/m*3 17.2 C 0 km/h
8 24-05-2009 01:33:04 17 C 7.96 g/m*3 17 C 0 km/h
9 24-05-2009 01:45:04 17 C 8.1 g/m*3 17 C 0 km/h
10 24-05-2009 01:57:04 16.8 C 8.29 g/m*3 16.8 C 0 km/h
11 24-05-2009 02:09:04 16.7 C 8.38 g/m*3 16.7 C 0 km/h
12 24-05-2009 02:21:04 16.4 C 8.37 g/m*3 16.4 C 0 km/h
13 24-05-2009 02:33:04 16 C 8.31 g/m*3 16 C 0 km/h
14 24-05-2009 02:45:04 15.9 C 8.53 g/m*3 15.9 C 0 km/h
15 24-05-2009 02:57:04 15.7 C 8.43 g/m*3 15.7 C 0 km/h
16 24-05-2009 03:09:04 15.3 C 8.36 g/m*3 15.3 C 0 km/h
17 24-05-2009 03:21:04 15.2 C 8.44 g/m*3 15.2 C 0 km/h
18 24-05-2009 03:33:05 14.9 C 8.41 g/m*3 14.9 C 0 km/h
19 24-05-2009 03:45:05 14.8 C 8.49 g/m*3 14.8 C 0 km/h
20 24-05-2009 03:57:05 14.6 C 8.63 g/m*3 14.6 C 0 km/h
21 24-05-2009 04:09:05 14.2 C 8.67 g/m*3 14.2 C 0 km/h
22 24-05-2009 04:21:05 14.1 C 8.62 g/m*3 14.1 C 0 km/h
23 24-05-2009 04:33:05 13.9 C 8.51 g/m*3 13.9 C 0 km/h
24 24-05-2009 04:45:05 13.9 C 8.51 g/m*3 13.9 C 0 km/h
25 24-05-2009 04:57:05 13.8 C 8.46 g/m*3 13.8 C 0 km/h
Sensor: Nr:Datum:Temp:Abs-Feuchte:Windchill:Wind:
Aussen-T/F 26 24-05-2009 05:09:05 13.5 C 8.42 g/m*3 13.5 C 0 km/h
27 24-05-2009 05:21:05 13.5 C 8.66 g/m*3 13.5 C 0 km/h
28 24-05-2009 05:33:05 13.3 C 8.55 g/m*3 13.3 C 0 km/h
29 24-05-2009 05:45:05 13.3 C 8.55 g/m*3 13.3 C 0 km/h
30 24-05-2009 05:57:05 13.3 C 8.55 g/m*3 13.3 C 0 km/h
31 24-05-2009 06:09:05 13.4 C 8.6 g/m*3 13.4 C 0 km/h
32 24-05-2009 06:21:05 13.5 C 8.77 g/m*3 13.5 C 0 km/h
33 24-05-2009 06:33:05 13.5 C 8.89 g/m*3 13.5 C 0 km/h
34 24-05-2009 06:45:05 13.4 C 8.95 g/m*3 13.4 C 0 km/h
35 24-05-2009 06:57:05 13.3 C 8.9 g/m*3 13.3 C 0 km/h
36 24-05-2009 07:09:05 13.4 C 8.95 g/m*3 13.4 C 0 km/h
37 24-05-2009 07:21:56 13.5 C 9.01 g/m*3 13.5 C 0 km/h
38 24-05-2009 07:33:57 13.8 C 9.17 g/m*3 13.8 C 0 km/h
39 24-05-2009 07:45:56 13.9 C 9.11 g/m*3 13.9 C 0 km/h
40 24-05-2009 07:57:56 14.3 C 9.09 g/m*3 14.3 C 0 km/h
41 24-05-2009 08:09:56 14.7 C 9.19 g/m*3 14.7 C 0 km/h
42 24-05-2009 08:21:56 15.2 C 9.09 g/m*3 15.2 C 0 km/h
43 24-05-2009 08:33:56 15.6 C 9.18 g/m*3 15.6 C 0 km/h
44 24-05-2009 08:45:56 16.1 C 9.32 g/m*3 16.1 C 0 km/h
45 24-05-2009 08:57:56 16.8 C 9.44 g/m*3 16.8 C 0 km/h
46 24-05-2009 09:09:55 17.4 C 9.19 g/m*3 17.4 C 0 km/h
47 24-05-2009 09:21:56 17.9 C 8.86 g/m*3 17.9 C 0 km/h
48 24-05-2009 09:33:55 18.7 C 8.97 g/m*3 18.7 C 0 km/h
49 24-05-2009 09:45:56 19.3 C 8.46 g/m*3 19.3 C 0 km/h
50 24-05-2009 09:57:56 19.9 C 8.76 g/m*3 19.9 C 0 km/h
Sensor: Nr:Datum:Temp:Abs-Feuchte:Windchill:Wind:
Aussen-T/F 51 24-05-2009 10:09:55 20.1 C 8.34 g/m*3 20.1 C 0 km/h
52 24-05-2009 10:21:55 21 C 8.24 g/m*3 21 C 0 km/h
53 24-05-2009 10:33:55 21.2 C 8.34 g/m*3 21.2 C 0 km/h
54 24-05-2009 10:45:55 22.2 C 8.44 g/m*3 22.2 C 0 km/h
55 24-05-2009 10:57:55 22.6 C 8.44 g/m*3 22.6 C 0 km/h
56 24-05-2009 11:09:55 23.8 C 9.46 g/m*3 23.8 C 0 km/h
57 24-05-2009 11:21:54 24.2 C 8.14 g/m*3 24.2 C 0 km/h
58 24-05-2009 11:33:55 25.3 C 7.96 g/m*3 25.3 C 0 km/h
59 24-05-2009 11:45:54 25.5 C 7.81 g/m*3 25.5 C 0 km/h
60 24-05-2009 11:57:54 26 C 8.03 g/m*3 26 C 0 km/h
61 24-05-2009 12:09:54 25.6 C 7.14 g/m*3 25.6 C 0 km/h
62 24-05-2009 12:21:54 26.9 C 7.68 g/m*3 26.9 C 0 km/h
63 24-05-2009 12:33:54 27.6 C 7.18 g/m*3 27.6 C 0 km/h
64 24-05-2009 12:45:53 28.6 C 7.59 g/m*3 28.6 C 0 km/h
65 24-05-2009 12:57:53 29.7 C 7.46 g/m*3 29.7 C 0 km/h
66 24-05-2009 13:09:53 30.1 C 7.01 g/m*3 30.1 C 0 km/h
67 24-05-2009 13:21:54 30.6 C 6.89 g/m*3 30.6 C 0 km/h
68 24-05-2009 13:33:53 30.3 C 6.78 g/m*3 30.3 C 0 km/h
69 24-05-2009 13:45:53 29.2 C 6.1 g/m*3 29.2 C 0 km/h
70 24-05-2009 13:57:53 29.1 C 6.64 g/m*3 29.1 C 0 km/h
71 24-05-2009 14:09:53 29.1 C 6.64 g/m*3 29.1 C 0 km/h
72 24-05-2009 14:21:53 28.5 C 6.99 g/m*3 28.5 C 0 km/h
73 24-05-2009 14:33:52 28.8 C 7.1 g/m*3 28.8 C 0 km/h
74 24-05-2009 14:45:53 29 C 6.89 g/m*3 29 C 0 km/h
75 24-05-2009 14:57:54 30.6 C 6.89 g/m*3 30.6 C 0 km/h
Sensor: Nr:Datum:Temp:Abs-Feuchte:Windchill:Wind:
Aussen-T/F 76 24-05-2009 15:09:52 30.3 C 6.78 g/m*3 30.3 C 0 km/h
77 24-05-2009 15:21:52 31.2 C 6.47 g/m*3 31.2 C 0 km/h
78 24-05-2009 15:33:52 31.4 C 6.54 g/m*3 31.4 C 0 km/h
79 24-05-2009 15:45:52 31.9 C 6.72 g/m*3 31.9 C 0 km/h
80 24-05-2009 15:57:52 31.9 C 6.72 g/m*3 31.9 C 0 km/h
81 24-05-2009 16:09:52 32.1 C 6.79 g/m*3 32.1 C 0 km/h
82 24-05-2009 16:21:52 31.9 C 6.72 g/m*3 31.9 C 0 km/h
83 24-05-2009 16:33:52 31.7 C 6.64 g/m*3 31.7 C 0 km/h
84 24-05-2009 16:45:51 31.5 C 6.9 g/m*3 31.5 C 0 km/h
85 24-05-2009 16:57:51 31.5 C 6.9 g/m*3 31.5 C 0 km/h
86 24-05-2009 17:09:52 30.7 C 7.24 g/m*3 30.7 C 0 km/h
87 24-05-2009 17:21:51 31 C 7.04 g/m*3 31 C 0 km/h
88 24-05-2009 17:33:51 31.3 C 6.83 g/m*3 31.3 C 0 km/h
89 24-05-2009 17:45:51 31.9 C 6.72 g/m*3 31.9 C 0 km/h
90 24-05-2009 17:57:51 32 C 6.75 g/m*3 32 C 0 km/h
91 24-05-2009 18:09:51 31.3 C 6.83 g/m*3 31.3 C 0 km/h
92 24-05-2009 18:21:51 31.5 C 6.9 g/m*3 31.5 C 0 km/h
93 24-05-2009 18:33:50 31.7 C 6.98 g/m*3 31.7 C 0 km/h
94 24-05-2009 18:45:50 31.7 C 6.64 g/m*3 31.7 C 0 km/h
95 24-05-2009 18:57:50 31.2 C 6.79 g/m*3 31.2 C 0 km/h
96 24-05-2009 19:09:50 31.1 C 7.4 g/m*3 31.1 C 0 km/h
97 24-05-2009 19:21:50 30.9 C 7 g/m*3 30.9 C 0 km/h
98 24-05-2009 19:33:50 30.9 C 7.64 g/m*3 30.9 C 0 km/h
99 24-05-2009 19:45:50 30.2 C 7.66 g/m*3 30.2 C 0 km/h
100 24-05-2009 19:57:50 30 C 7.88 g/m*3 30 C 0 km/h
Sensor: Nr:Datum:Temp:Abs-Feuchte:Windchill:Wind:
Aussen-T/F 101 24-05-2009 20:09:50 28.9 C 8 g/m*3 28.9 C 0 km/h
102 24-05-2009 20:21:49 28.7 C 8.48 g/m*3 28.7 C 0 km/h
103 24-05-2009 20:33:49 28.2 C 8.8 g/m*3 28.2 C 0 km/h
104 24-05-2009 20:45:49 27.2 C 9.37 g/m*3 27.2 C 0 km/h
105 24-05-2009 20:57:49 26 C 9.25 g/m*3 26 C 0 km/h
106 24-05-2009 21:09:49 25.2 C 9.31 g/m*3 25.2 C 0 km/h
107 24-05-2009 21:21:49 24.3 C 9.29 g/m*3 24.3 C 0 km/h
108 24-05-2009 21:33:48 24 C 9.14 g/m*3 24 C 0 km/h
109 24-05-2009 21:45:49 23.9 C 9.3 g/m*3 23.9 C 0 km/h
110 24-05-2009 21:57:49 23.6 C 9.36 g/m*3 23.6 C 0 km/h
111 24-05-2009 22:09:48 23.2 C 9.56 g/m*3 23.2 C 0 km/h
112 24-05-2009 22:22:49 22.9 C 9.61 g/m*3 22.9 C 0 km/h
113 24-05-2009 22:34:49 22.8 C 9.75 g/m*3 22.8 C 0 km/h
114 24-05-2009 22:46:49 22.5 C 9.39 g/m*3 22.5 C 0 km/h
115 24-05-2009 22:58:49 22.3 C 9.68 g/m*3 22.3 C 0 km/h
116 24-05-2009 23:10:49 22 C 9.7 g/m*3 22 C 0 km/h
117 24-05-2009 23:22:49 21.7 C 9.92 g/m*3 21.7 C 0 km/h
118 24-05-2009 23:34:49 21.5 C 9.81 g/m*3 21.5 C 0 km/h
119 24-05-2009 23:46:49 21.2 C 9.82 g/m*3 21.2 C 0 km/h
120 24-05-2009 23:58:49 21 C 9.89 g/m*3 21 C 0 km/h
121 25-05-2009 00:10:49 20.7 C 9.9 g/m*3 20.7 C 0 km/h
122 25-05-2009 00:22:49 20.5 C 10.14 g/m*3 20.5 C 0 km/h
123 25-05-2009 00:34:49 20.3 C 10.02 g/m*3 20.3 C 0 km/h
124 25-05-2009 00:46:49 20 C 10.02 g/m*3 20 C 0 km/h
125 25-05-2009 00:58:49 19.6 C 10.3 g/m*3 19.6 C 0 km/h
Sensor: Nr:Datum:Temp:Abs-Feuchte:Windchill:Wind:
Aussen-T/F 126 25-05-2009 01:10:49 19.4 C 10.18 g/m*3 19.4 C 0 km/h
127 25-05-2009 01:22:49 19.3 C 10.12 g/m*3 19.3 C 0 km/h
128 25-05-2009 01:34:49 19.2 C 10.06 g/m*3 19.2 C 0 km/h
129 25-05-2009 01:46:49 18.9 C 10.37 g/m*3 18.9 C 0 km/h
130 25-05-2009 01:58:49 18.7 C 10.41 g/m*3 18.7 C 0 km/h
131 25-05-2009 02:10:49 18.6 C 10.35 g/m*3 18.6 C 0 km/h
132 25-05-2009 02:22:50 18.4 C 10.38 g/m*3 18.4 C 0 km/h
133 25-05-2009 02:34:50 18.2 C 10.26 g/m*3 18.2 C 0 km/h
134 25-05-2009 02:46:50 18 C 10.14 g/m*3 18 C 0 km/h
135 25-05-2009 02:58:50 17.9 C 10.23 g/m*3 17.9 C 0 km/h
136 25-05-2009 03:10:50 17.7 C 10.26 g/m*3 17.7 C 0 km/h
137 25-05-2009 03:22:50 17.5 C 10.29 g/m*3 17.5 C 0 km/h
138 25-05-2009 03:34:50 17.4 C 10.23 g/m*3 17.4 C 0 km/h
139 25-05-2009 03:46:50 17.3 C 10.31 g/m*3 17.3 C 0 km/h
140 25-05-2009 03:58:50 17.1 C 10.19 g/m*3 17.1 C 0 km/h
141 25-05-2009 04:10:50 17 C 10.27 g/m*3 17 C 0 km/h
142 25-05-2009 04:22:50 16.9 C 10.36 g/m*3 16.9 C 0 km/h
143 25-05-2009 04:34:50 16.7 C 10.37 g/m*3 16.7 C 0 km/h
144 25-05-2009 04:46:50 16.5 C 10.25 g/m*3 16.5 C 0 km/h
145 25-05-2009 04:58:50 16.4 C 10.19 g/m*3 16.4 C 0 km/h
146 25-05-2009 05:10:50 16.2 C 10.2 g/m*3 16.2 C 0 km/h
147 25-05-2009 05:22:50 16.1 C 10.14 g/m*3 16.1 C 0 km/h
148 25-05-2009 05:34:50 15.9 C 10.16 g/m*3 15.9 C 0 km/h
149 25-05-2009 05:46:50 15.9 C 10.29 g/m*3 15.9 C 0 km/h
150 25-05-2009 05:58:50 15.8 C 10.23 g/m*3 15.8 C 0 km/h
Sensor: Nr:Datum:Temp:Abs-Feuchte:Windchill:Wind:
Aussen-T/F 151 25-05-2009 06:10:51 15.7 C 10.3 g/m*3 15.7 C 0 km/h
152 25-05-2009 06:22:51 15.6 C 10.24 g/m*3 15.6 C 0 km/h
153 25-05-2009 06:34:51 15.8 C 10.36 g/m*3 15.8 C 0 km/h
154 25-05-2009 06:46:51 16 C 10.49 g/m*3 16 C 0 km/h
155 25-05-2009 06:58:51 16 C 10.49 g/m*3 16 C 0 km/h
156 25-05-2009 07:10:48 16 C 10.49 g/m*3 16 C 0 km/h
157 25-05-2009 07:22:48 16.2 C 10.62 g/m*3 16.2 C 0 km/h
158 25-05-2009 07:34:48 16.2 C 10.62 g/m*3 16.2 C 0 km/h
159 25-05-2009 07:46:48 16.4 C 10.61 g/m*3 16.4 C 0 km/h
160 25-05-2009 07:58:48 16.7 C 10.8 g/m*3 16.7 C 0 km/h
161 25-05-2009 08:10:47 17.2 C 10.98 g/m*3 17.2 C 0 km/h
162 25-05-2009 08:22:48 17.5 C 11.03 g/m*3 17.5 C 0 km/h
163 25-05-2009 08:34:48 17.9 C 10.99 g/m*3 17.9 C 0 km/h
164 25-05-2009 08:46:47 18.3 C 10.94 g/m*3 18.3 C 0 km/h
165 25-05-2009 08:58:47 18.8 C 11.27 g/m*3 18.8 C 0 km/h
166 25-05-2009 09:10:48 19.5 C 11.08 g/m*3 19.5 C 0 km/h
167 25-05-2009 09:22:47 20.3 C 10.73 g/m*3 20.3 C 0 km/h
168 25-05-2009 09:34:47 21 C 10.62 g/m*3 21 C 0 km/h
169 25-05-2009 09:46:46 21.5 C 10.75 g/m*3 21.5 C 0 km/h
170 25-05-2009 09:58:46 22.2 C 10.6 g/m*3 22.2 C 0 km/h
171 25-05-2009 10:10:47 22.9 C 10.42 g/m*3 22.9 C 0 km/h
172 25-05-2009 10:22:47 23.7 C 10.69 g/m*3 23.7 C 0 km/h
173 25-05-2009 10:34:46 24.4 C 10.46 g/m*3 24.4 C 0 km/h
174 25-05-2009 10:46:47 24.9 C 10.53 g/m*3 24.9 C 0 km/h
175 25-05-2009 10:58:47 25.8 C 10.11 g/m*3 25.8 C 0 km/h
Sensor: Nr:Datum:Temp:Abs-Feuchte:Windchill:Wind:
Aussen-T/F 176 25-05-2009 11:10:46 26.4 C 10.7 g/m*3 26.4 C 0 km/h
177 25-05-2009 11:22:46 27.2 C 9.89 g/m*3 27.2 C 0 km/h
178 25-05-2009 11:34:01 27.3 C 9.94 g/m*3 27.3 C 0 km/h
179 25-05-2009 11:46:01 28 C 9.79 g/m*3 28 C 0 km/h
180 25-05-2009 11:58:02 28.7 C 9.61 g/m*3 28.7 C 0 km/h
181 25-05-2009 12:10:01 29.7 C 9.85 g/m*3 29.7 C 0 km/h
182 25-05-2009 12:22:01 29.8 C 9.6 g/m*3 29.8 C 0 km/h
183 25-05-2009 12:34:01 30.6 C 9.08 g/m*3 30.6 C 0 km/h
184 25-05-2009 12:46:01 31.3 C 8.78 g/m*3 31.3 C 0 km/h
185 25-05-2009 12:58:01 31.5 C 8.55 g/m*3 31.5 C 0 km/h
186 25-05-2009 13:10:01 31.8 C 8.02 g/m*3 31.8 C 0 km/h
187 25-05-2009 13:22:00 31.8 C 7.35 g/m*3 31.8 C 0 km/h
188 25-05-2009 13:34:01 32.2 C 7.85 g/m*3 32.2 C 0 km/h
189 25-05-2009 13:46:00 32.4 C 6.9 g/m*3 32.4 C 0 km/h
190 25-05-2009 13:58:00 32.3 C 7.2 g/m*3 32.3 C 0 km/h
191 25-05-2009 14:10:00 32 C 7.09 g/m*3 32 C 0 km/h
192 25-05-2009 14:22:59 32 C 7.76 g/m*3 32 C 0 km/h
193 25-05-2009 14:34:00 32.3 C 7.2 g/m*3 32.3 C 0 km/h
194 25-05-2009 14:46:59 32.6 C 6.97 g/m*3 32.6 C 0 km/h
195 25-05-2009 14:58:59 32.6 C 7.67 g/m*3 32.6 C 0 km/h
196 25-05-2009 15:10:59 33.2 C 7.55 g/m*3 33.2 C 0 km/h
197 25-05-2009 15:22:00 33.3 C 7.23 g/m*3 33.3 C 0 km/h
198 25-05-2009 15:34:59 33.3 C 7.23 g/m*3 33.3 C 0 km/h
199 25-05-2009 15:46:59 33.4 C 7.27 g/m*3 33.4 C 0 km/h
200 25-05-2009 15:58:59 33.6 C 7.35 g/m*3 33.6 C 0 km/h
Sensor: Nr:Datum:Temp:Abs-Feuchte:Windchill:Wind:
Aussen-T/F 201 25-05-2009 16:10:59 33.1 C 7.52 g/m*3 33.1 C 0 km/h
202 25-05-2009 16:22:59 33.1 C 8.59 g/m*3 33.1 C 0 km/h
203 25-05-2009 16:34:59 32.4 C 10 g/m*3 32.4 C 0 km/h
204 25-05-2009 16:46:58 31.9 C 10.75 g/m*3 31.9 C 0 km/h
205 25-05-2009 16:58:58 31.3 C 11.38 g/m*3 31.3 C 0 km/h
206 25-05-2009 17:10:59 30.6 C 11.9 g/m*3 30.6 C 0 km/h
207 25-05-2009 17:22:58 29.8 C 12.6 g/m*3 29.8 C 0 km/h
208 25-05-2009 17:34:58 29.1 C 12.71 g/m*3 29.1 C 0 km/h
209 25-05-2009 17:46:58 28.2 C 12.92 g/m*3 28.2 C 0 km/h
210 25-05-2009 17:58:58 28 C 12.51 g/m*3 28 C 0 km/h
211 25-05-2009 18:10:57 27.6 C 11.97 g/m*3 27.6 C 0 km/h
212 25-05-2009 18:22:58 26.8 C 7.64 g/m*3 26.8 C 0 km/h
213 25-05-2009 18:34:57 26.4 C 7.47 g/m*3 26.4 C 0 km/h
214 25-05-2009 18:46:57 25.9 C 7.26 g/m*3 25.9 C 0 km/h
215 25-05-2009 18:58:57 25.8 C 8.19 g/m*3 25.8 C 0 km/h
216 25-05-2009 19:10:57 25.2 C 7.92 g/m*3 25.2 C 0 km/h
217 25-05-2009 19:22:57 25 C 8.06 g/m*3 25 C 0 km/h
218 25-05-2009 19:34:57 25.3 C 7.96 g/m*3 25.3 C 0 km/h
219 25-05-2009 19:46:57 25.5 C 8.76 g/m*3 25.5 C 0 km/h
220 25-05-2009 19:58:57 25.4 C 8.48 g/m*3 25.4 C 0 km/h
221 25-05-2009 20:10:57 25.5 C 9.23 g/m*3 25.5 C 0 km/h
222 25-05-2009 20:22:56 25.8 C 9.15 g/m*3 25.8 C 0 km/h
223 25-05-2009 20:34:56 26.2 C 8.86 g/m*3 26.2 C 0 km/h
224 25-05-2009 20:46:56 26.1 C 10.04 g/m*3 26.1 C 0 km/h
225 25-05-2009 20:58:56 25.5 C 9.94 g/m*3 25.5 C 0 km/h
Sensor: Nr:Datum:Temp:Abs-Feuchte:Windchill:Wind:
Aussen-T/F 226 25-05-2009 21:10:56 24.9 C 10.3 g/m*3 24.9 C 0 km/h
227 25-05-2009 21:22:56 24.1 C 10.28 g/m*3 24.1 C 0 km/h
228 25-05-2009 21:34:56 23.4 C 10.09 g/m*3 23.4 C 0 km/h
229 25-05-2009 21:46:55 22.8 C 9.96 g/m*3 22.8 C 0 km/h
230 25-05-2009 21:58:55 22.4 C 9.93 g/m*3 22.4 C 0 km/h
231 25-05-2009 22:10:55 22.1 C 9.96 g/m*3 22.1 C 0 km/h
232 25-05-2009 22:23:57 21.9 C 9.84 g/m*3 21.9 C 0 km/h
233 25-05-2009 22:35:57 21.7 C 9.92 g/m*3 21.7 C 0 km/h
234 25-05-2009 22:47:57 21.7 C 10.3 g/m*3 21.7 C 0 km/h
235 25-05-2009 22:59:57 21.5 C 10.37 g/m*3 21.5 C 0 km/h
236 25-05-2009 23:11:57 21.2 C 10.38 g/m*3 21.2 C 0 km/h
237 25-05-2009 23:23:57 21 C 10.26 g/m*3 21 C 0 km/h
238 25-05-2009 23:35:57 20.8 C 10.5 g/m*3 20.8 C 0 km/h
239 25-05-2009 23:47:57 20.5 C 10.5 g/m*3 20.5 C 0 km/h
240 25-05-2009 23:59:57 20.4 C 10.61 g/m*3 20.4 C 0 km/h
241 26-05-2009 00:11:57 20.2 C 10.84 g/m*3 20.2 C 0 km/h
242 26-05-2009 00:23:57 20 C 10.89 g/m*3 20 C 0 km/h
243 26-05-2009 00:35:57 19.9 C 11 g/m*3 19.9 C 0 km/h
244 26-05-2009 00:47:57 19.7 C 11.04 g/m*3 19.7 C 0 km/h
245 26-05-2009 00:59:57 19.5 C 11.24 g/m*3 19.5 C 0 km/h
246 26-05-2009 01:11:57 19.3 C 11.11 g/m*3 19.3 C 0 km/h
247 26-05-2009 01:23:58 19.2 C 11.05 g/m*3 19.2 C 0 km/h
248 26-05-2009 01:35:58 18.9 C 11.18 g/m*3 18.9 C 0 km/h
249 26-05-2009 01:47:58 18.9 C 11.5 g/m*3 18.9 C 0 km/h
250 26-05-2009 01:59:58 19.1 C 11.47 g/m*3 19.1 C 0 km/h
Sensor: Nr:Datum:Temp:Abs-Feuchte:Windchill:Wind:
Aussen-T/F 251 26-05-2009 02:11:58 18.8 C 11.43 g/m*3 18.8 C 0 km/h
252 26-05-2009 02:23:58 18.6 C 11.3 g/m*3 18.6 C 0 km/h
253 26-05-2009 02:35:58 18.5 C 11.39 g/m*3 18.5 C 0 km/h
254 26-05-2009 02:47:58 18.3 C 11.41 g/m*3 18.3 C 0 km/h
255 26-05-2009 02:59:58 18.3 C 11.41 g/m*3 18.3 C 0 km/h
256 26-05-2009 03:11:58 18.4 C 11.48 g/m*3 18.4 C 0 km/h
257 26-05-2009 03:23:58 18.4 C 11.48 g/m*3 18.4 C 0 km/h
258 26-05-2009 03:35:58 18.5 C 11.55 g/m*3 18.5 C 0 km/h
259 26-05-2009 03:47:58 18.3 C 11.41 g/m*3 18.3 C 0 km/h
260 26-05-2009 03:59:58 18 C 11.37 g/m*3 18 C 0 km/h
261 26-05-2009 04:11:58 17.9 C 11.45 g/m*3 17.9 C 0 km/h
262 26-05-2009 04:23:58 17.7 C 11.47 g/m*3 17.7 C 0 km/h
263 26-05-2009 04:35:58 17.5 C 11.48 g/m*3 17.5 C 0 km/h
264 26-05-2009 04:47:58 17.4 C 11.56 g/m*3 17.4 C 0 km/h
265 26-05-2009 04:59:58 17.3 C 11.34 g/m*3 17.3 C 0 km/h
266 26-05-2009 05:11:58 17.2 C 11.42 g/m*3 17.2 C 0 km/h
267 26-05-2009 05:23:58 17.2 C 11.42 g/m*3 17.2 C 0 km/h
268 26-05-2009 05:35:59 17.4 C 11.86 g/m*3 17.4 C 0 km/h
269 26-05-2009 05:47:59 17.6 C 11.85 g/m*3 17.6 C 0 km/h
270 26-05-2009 05:59:59 17.6 C 11.55 g/m*3 17.6 C 0 km/h
271 26-05-2009 06:11:59 17.6 C 11.7 g/m*3 17.6 C 0 km/h
272 26-05-2009 06:23:59 17.7 C 11.77 g/m*3 17.7 C 0 km/h
273 26-05-2009 06:35:56 18 C 11.83 g/m*3 18 C 0 km/h
274 26-05-2009 06:47:56 18.2 C 11.81 g/m*3 18.2 C 0 km/h
275 26-05-2009 06:59:56 18.4 C 12.11 g/m*3 18.4 C 0 km/h
Sensor: Nr:Datum:Temp:Abs-Feuchte:Windchill:Wind:
Aussen-T/F 276 26-05-2009 07:11:56 18.5 C 12.02 g/m*3 18.5 C 0 km/h
277 26-05-2009 07:23:56 18.7 C 12.17 g/m*3 18.7 C 0 km/h
278 26-05-2009 07:35:56 18.7 C 12.01 g/m*3 18.7 C 0 km/h
279 26-05-2009 07:47:55 19.1 C 11.97 g/m*3 19.1 C 0 km/h
280 26-05-2009 07:59:55 19.3 C 11.94 g/m*3 19.3 C 0 km/h
281 26-05-2009 08:11:56 19.6 C 12.15 g/m*3 19.6 C 0 km/h
282 26-05-2009 08:23:55 20.1 C 12.17 g/m*3 20.1 C 0 km/h
283 26-05-2009 08:35:55 20.9 C 10.93 g/m*3 20.9 C 0 km/h
284 26-05-2009 08:47:55 21.4 C 9.75 g/m*3 21.4 C 0 km/h
285 26-05-2009 08:59:55 21.5 C 9.43 g/m*3 21.5 C 0 km/h
286 26-05-2009 09:11:55 21.4 C 9.94 g/m*3 21.4 C 0 km/h
287 26-05-2009 09:23:54 20.4 C 10.61 g/m*3 20.4 C 0 km/h
288 26-05-2009 09:35:54 21.2 C 10.75 g/m*3 21.2 C 0 km/h
289 26-05-2009 09:47:55 21.8 C 10.55 g/m*3 21.8 C 0 km/h
290 26-05-2009 09:59:55 22.5 C 10.39 g/m*3 22.5 C 0 km/h
291 26-05-2009 10:11:54 23 C 10.07 g/m*3 23 C 0 km/h
292 26-05-2009 10:23:54 22.8 C 9.75 g/m*3 22.8 C 0 km/h
293 26-05-2009 10:35:54 22.9 C 10.01 g/m*3 22.9 C 0 km/h
294 26-05-2009 10:47:54 23.1 C 9.72 g/m*3 23.1 C 0 km/h
295 26-05-2009 10:59:55 23.7 C 9.84 g/m*3 23.7 C 0 km/h
296 26-05-2009 11:11:53 23.8 C 9.9 g/m*3 23.8 C 0 km/h
297 26-05-2009 11:23:53 23.6 C 10 g/m*3 23.6 C 0 km/h
298 26-05-2009 11:35:54 23.3 C 10.04 g/m*3 23.3 C 0 km/h
299 26-05-2009 11:47:53 23.8 C 9.9 g/m*3 23.8 C 0 km/h
300 26-05-2009 11:59:53 24.4 C 9.79 g/m*3 24.4 C 0 km/h
Sensor: Nr:Datum:Temp:Abs-Feuchte:Windchill:Wind:
Aussen-T/F 301 26-05-2009 12:11:53 24.4 C 8.9 g/m*3 24.4 C 0 km/h
302 26-05-2009 12:23:53 23.1 C 8.68 g/m*3 23.1 C 0 km/h
303 26-05-2009 12:35:53 24.3 C 9.29 g/m*3 24.3 C 0 km/h
304 26-05-2009 12:47:52 25.4 C 8.71 g/m*3 25.4 C 0 km/h
305 26-05-2009 12:59:52 24.3 C 8.41 g/m*3 24.3 C 0 km/h
306 26-05-2009 13:11:53 25.6 C 8.33 g/m*3 25.6 C 0 km/h
307 26-05-2009 13:23:53 26.5 C 8.26 g/m*3 26.5 C 0 km/h
308 26-05-2009 13:35:52 26.5 C 7.76 g/m*3 26.5 C 0 km/h
309 26-05-2009 13:47:52 25.7 C 7.66 g/m*3 25.7 C 0 km/h
310 26-05-2009 13:59:52 26.1 C 7.83 g/m*3 26.1 C 0 km/h
311 26-05-2009 14:11:52 25.6 C 7.86 g/m*3 25.6 C 0 km/h
312 26-05-2009 14:23:52 24.7 C 7.47 g/m*3 24.7 C 0 km/h
313 26-05-2009 14:35:51 24 C 7.61 g/m*3 24 C 0 km/h
314 26-05-2009 14:47:52 23.6 C 7.87 g/m*3 23.6 C 0 km/h
315 26-05-2009 14:59:53 24.6 C 7.88 g/m*3 24.6 C 0 km/h
316 26-05-2009 15:11:51 24.1 C 7.88 g/m*3 24.1 C 0 km/h
317 26-05-2009 15:23:51 25 C 7.6 g/m*3 25 C 0 km/h
318 26-05-2009 15:35:51 23.8 C 7.31 g/m*3 23.8 C 0 km/h
319 26-05-2009 15:47:51 24.3 C 7.08 g/m*3 24.3 C 0 km/h
320 26-05-2009 15:59:51 24.5 C 7.39 g/m*3 24.5 C 0 km/h
321 26-05-2009 16:05:51 24.7 C 7.47 g/m*3 24.7 C 0 km/h
322 26-05-2009 16:21:50 25 C 7.37 g/m*3 25 C 0 km/h
323 26-05-2009 16:33:51 24.9 C 7.55 g/m*3 24.9 C 0 km/h
324 26-05-2009 16:45:50 24.3 C 7.08 g/m*3 24.3 C 0 km/h
325 26-05-2009 16:57:50 23.9 C 7.14 g/m*3 23.9 C 0 km/h
Sensor: Nr:Datum:Temp:Abs-Feuchte:Windchill:Wind:
Aussen-T/F 326 26-05-2009 17:09:50 23.3 C 7.32 g/m*3 23.3 C 0 km/h
327 26-05-2009 17:21:50 24 C 7.61 g/m*3 24 C 0 km/h
328 26-05-2009 17:33:50 24.3 C 7.52 g/m*3 24.3 C 0 km/h
329 26-05-2009 17:45:49 24.4 C 7.57 g/m*3 24.4 C 0 km/h
330 26-05-2009 17:57:49 23.7 C 7.7 g/m*3 23.7 C 0 km/h
331 26-05-2009 18:09:50 22.9 C 7.77 g/m*3 22.9 C 0 km/h
332 26-05-2009 18:21:50 21 C 7.88 g/m*3 21 C 0 km/h
333 26-05-2009 18:33:49 18.4 C 9.75 g/m*3 18.4 C 0 km/h
334 26-05-2009 18:45:49 17.5 C 11.03 g/m*3 17.5 C 0 km/h
335 26-05-2009 18:57:49 17 C 11 g/m*3 17 C 0 km/h
336 26-05-2009 19:09:49 17.1 C 11.06 g/m*3 17.1 C 0 km/h
337 26-05-2009 19:21:49 17.1 C 10.77 g/m*3 17.1 C 0 km/h
338 26-05-2009 19:33:49 15.7 C 9.5 g/m*3 15.7 C 0 km/h
339 26-05-2009 19:45:49 16.2 C 9.65 g/m*3 16.2 C 0 km/h
340 26-05-2009 19:57:49 16.5 C 9.55 g/m*3 16.5 C 0 km/h
341 26-05-2009 20:09:49 16.6 C 8.9 g/m*3 16.6 C 0 km/h
342 26-05-2009 20:21:48 16.3 C 8.88 g/m*3 16.3 C 0 km/h
343 26-05-2009 20:33:49 15.5 C 9.65 g/m*3 15.5 C 0 km/h
344 26-05-2009 20:45:48 15.1 C 9.93 g/m*3 15.1 C 0 km/h
345 26-05-2009 20:57:48 14.6 C 9.64 g/m*3 14.6 C 0 km/h
346 26-05-2009 21:09:48 14.5 C 9.33 g/m*3 14.5 C 0 km/h
347 26-05-2009 21:21:47 14.8 C 9.37 g/m*3 14.8 C 0 km/h
348 26-05-2009 21:33:47 15.1 C 8.64 g/m*3 15.1 C 0 km/h
349 26-05-2009 21:45:48 15.2 C 8.57 g/m*3 15.2 C 0 km/h
350 26-05-2009 21:57:48 15.1 C 8.39 g/m*3 15.1 C 0 km/h
Sensor: Nr:Datum:Temp:Abs-Feuchte:Windchill:Wind:
Aussen-T/F 351 26-05-2009 22:09:47 15.1 C 8.39 g/m*3 15.1 C 0 km/h
352 26-05-2009 22:21:47 14 C 7.6 g/m*3 14 C 0 km/h
353 26-05-2009 22:34:01 13.7 C 7.22 g/m*3 13.7 C 0 km/h
354 26-05-2009 22:46:01 13.2 C 6.54 g/m*3 13.2 C 0 km/h
355 26-05-2009 22:58:01 12.8 C 6.61 g/m*3 12.8 C 0 km/h
356 26-05-2009 23:10:01 12.5 C 6.49 g/m*3 12.5 C 0 km/h
357 26-05-2009 23:22:01 12.3 C 6.41 g/m*3 12.3 C 0 km/h
358 26-05-2009 23:34:01 12.2 C 6.47 g/m*3 12.2 C 0 km/h
359 26-05-2009 23:46:01 12.2 C 6.58 g/m*3 12.2 C 0 km/h
360 26-05-2009 23:58:01 12.1 C 6.65 g/m*3 12.1 C 0 km/h
361 27-05-2009 00:10:02 12.4 C 6.88 g/m*3 12.4 C 0 km/h
362 27-05-2009 00:22:02 12.4 C 6.88 g/m*3 12.4 C 0 km/h
363 27-05-2009 00:34:02 12.2 C 6.91 g/m*3 12.2 C 0 km/h
364 27-05-2009 00:46:02 12 C 6.93 g/m*3 12 C 0 km/h
365 27-05-2009 00:58:02 11.6 C 7.07 g/m*3 11.6 C 0 km/h
366 27-05-2009 01:10:02 11.5 C 7.13 g/m*3 11.5 C 0 km/h
367 27-05-2009 01:22:02 11.4 C 7.08 g/m*3 11.4 C 0 km/h
368 27-05-2009 01:34:02 11.2 C 6.99 g/m*3 11.2 C 0 km/h
369 27-05-2009 01:46:02 11.1 C 6.95 g/m*3 11.1 C 0 km/h
370 27-05-2009 01:58:02 10.9 C 6.96 g/m*3 10.9 C 0 km/h
371 27-05-2009 02:10:02 10.7 C 6.97 g/m*3 10.7 C 0 km/h
372 27-05-2009 02:22:02 10.4 C 6.94 g/m*3 10.4 C 0 km/h
373 27-05-2009 02:34:02 10.2 C 6.85 g/m*3 10.2 C 0 km/h
374 27-05-2009 02:46:02 10.2 C 6.76 g/m*3 10.2 C 0 km/h
375 27-05-2009 02:58:02 10.3 C 6.7 g/m*3 10.3 C 0 km/h
Sensor: Nr:Datum:Temp:Abs-Feuchte:Windchill:Wind:
Aussen-T/F 376 27-05-2009 03:10:02 10.1 C 6.71 g/m*3 10.1 C 0 km/h
377 27-05-2009 03:22:02 9.8 C 6.77 g/m*3 9.8 C 0 km/h
378 27-05-2009 03:34:02 9.6 C 6.78 g/m*3 9.6 C 0 km/h
379 27-05-2009 03:46:02 9.6 C 6.78 g/m*3 9.6 C 0 km/h
380 27-05-2009 03:58:02 9.5 C 6.74 g/m*3 9.5 C 0 km/h
381 27-05-2009 04:10:02 9.4 C 6.69 g/m*3 9.4 C 0 km/h
382 27-05-2009 04:22:03 9.3 C 6.65 g/m*3 9.3 C 0 km/h
383 27-05-2009 04:34:03 9.2 C 6.7 g/m*3 9.2 C 0 km/h
384 27-05-2009 04:46:03 9.2 C 6.7 g/m*3 9.2 C 0 km/h
385 27-05-2009 04:58:03 9.2 C 6.7 g/m*3 9.2 C 0 km/h
386 27-05-2009 05:10:03 9.1 C 6.74 g/m*3 9.1 C 0 km/h
387 27-05-2009 05:22:03 9.1 C 6.74 g/m*3 9.1 C 0 km/h
388 27-05-2009 05:34:03 9.3 C 6.83 g/m*3 9.3 C 0 km/h
389 27-05-2009 05:46:03 9.2 C 6.79 g/m*3 9.2 C 0 km/h
390 27-05-2009 05:58:03 9.2 C 6.7 g/m*3 9.2 C 0 km/h
391 27-05-2009 06:10:03 9.3 C 6.74 g/m*3 9.3 C 0 km/h
392 27-05-2009 06:22:03 9.3 C 6.83 g/m*3 9.3 C 0 km/h
393 27-05-2009 06:34:03 9.3 C 6.74 g/m*3 9.3 C 0 km/h
394 27-05-2009 06:46:03 9.5 C 6.83 g/m*3 9.5 C 0 km/h
395 27-05-2009 06:58:03 9.7 C 6.82 g/m*3 9.7 C 0 km/h
396 27-05-2009 07:10:02 9.8 C 6.87 g/m*3 9.8 C 0 km/h
397 27-05-2009 07:22:02 9.9 C 6.82 g/m*3 9.9 C 0 km/h
398 27-05-2009 07:34:01 10 C 6.77 g/m*3 10 C 0 km/h
399 27-05-2009 07:46:02 10.2 C 6.76 g/m*3 10.2 C 0 km/h
400 27-05-2009 07:58:02 10.5 C 6.89 g/m*3 10.5 C 0 km/h
Sensor: Nr:Datum:Temp:Abs-Feuchte:Windchill:Wind:
Aussen-T/F 401 27-05-2009 08:10:01 10.7 C 6.97 g/m*3 10.7 C 0 km/h
402 27-05-2009 08:22:02 11 C 6.91 g/m*3 11 C 0 km/h
403 27-05-2009 08:34:01 11.3 C 6.94 g/m*3 11.3 C 0 km/h
404 27-05-2009 08:46:01 11.7 C 7.01 g/m*3 11.7 C 0 km/h
405 27-05-2009 08:58:01 12.2 C 6.91 g/m*3 12.2 C 0 km/h
406 27-05-2009 09:10:01 12.4 C 6.88 g/m*3 12.4 C 0 km/h
407 27-05-2009 09:22:01 12.9 C 6.88 g/m*3 12.9 C 0 km/h
408 27-05-2009 09:34:02 13.2 C 6.77 g/m*3 13.2 C 0 km/h
409 27-05-2009 09:46:01 13.5 C 6.78 g/m*3 13.5 C 0 km/h
410 27-05-2009 09:58:01 13.7 C 6.63 g/m*3 13.7 C 0 km/h
411 27-05-2009 10:10:02 14.3 C 6.51 g/m*3 14.3 C 0 km/h
412 27-05-2009 10:22:01 14.7 C 6.3 g/m*3 14.7 C 0 km/h
413 27-05-2009 10:34:01 14.9 C 6.37 g/m*3 14.9 C 0 km/h
414 27-05-2009 10:46:01 15.3 C 6.27 g/m*3 15.3 C 0 km/h
415 27-05-2009 10:58:01 15.7 C 6.02 g/m*3 15.7 C 0 km/h
416 27-05-2009 11:10:01 15.8 C 6.06 g/m*3 15.8 C 0 km/h
417 27-05-2009 11:22:02 16.1 C 5.76 g/m*3 16.1 C 0 km/h
418 27-05-2009 11:34:01 16.9 C 6.18 g/m*3 16.9 C 0 km/h
419 27-05-2009 11:46:02 17 C 5.64 g/m*3 17 C 0 km/h
420 27-05-2009 11:58:02 17.5 C 5.37 g/m*3 17.5 C 0 km/h
421 27-05-2009 12:10:01 18.8 C 5.31 g/m*3 18.8 C 0 km/h
422 27-05-2009 12:22:02 18.5 C 4.75 g/m*3 18.5 C 0 km/h
423 27-05-2009 12:34:01 19.1 C 4.59 g/m*3 19.1 C 0 km/h
424 27-05-2009 12:46:02 19.6 C 4.39 g/m*3 19.6 C 0 km/h
425 27-05-2009 12:58:02 17.8 C 4.1 g/m*3 17.8 C 0 km/h
Sensor: Nr:Datum:Temp:Abs-Feuchte:Windchill:Wind:
Aussen-T/F 426 27-05-2009 13:10:01 20.1 C 4.35 g/m*3 20.1 C 0 km/h
427 27-05-2009 13:22:01 20.3 C 4.57 g/m*3 20.3 C 0 km/h
428 27-05-2009 13:34:02 20.1 C 3.82 g/m*3 20.1 C 0 km/h
429 27-05-2009 13:46:01 20.8 C 3.8 g/m*3 20.8 C 0 km/h
430 27-05-2009 13:58:01 19.5 C 3.36 g/m*3 19.5 C 0 km/h
431 27-05-2009 14:10:02 19.6 C 3.71 g/m*3 19.6 C 0 km/h
432 27-05-2009 14:22:01 19.8 C 3.76 g/m*3 19.8 C 0 km/h
433 27-05-2009 14:34:01 19.9 C 3.44 g/m*3 19.9 C 0 km/h
434 27-05-2009 14:46:01 20.1 C 3.48 g/m*3 20.1 C 0 km/h
435 27-05-2009 14:58:01 19.4 C 3.84 g/m*3 19.4 C 0 km/h
436 27-05-2009 15:10:01 19.2 C 4.12 g/m*3 19.2 C 0 km/h
437 27-05-2009 15:22:01 19.3 C 4.31 g/m*3 19.3 C 0 km/h
438 27-05-2009 15:34:01 19.3 C 4.31 g/m*3 19.3 C 0 km/h
439 27-05-2009 15:46:01 19.3 C 4.48 g/m*3 19.3 C 0 km/h
440 27-05-2009 15:58:01 19.5 C 4.53 g/m*3 19.5 C 0 km/h
441 27-05-2009 16:10:01 19.9 C 4.64 g/m*3 19.9 C 0 km/h
442 27-05-2009 16:22:02 19.4 C 4.34 g/m*3 19.4 C 0 km/h
443 27-05-2009 16:34:01 20.3 C 4.57 g/m*3 20.3 C 0 km/h
444 27-05-2009 16:46:02 19.6 C 4.56 g/m*3 19.6 C 0 km/h
445 27-05-2009 16:58:02 19.5 C 4.7 g/m*3 19.5 C 0 km/h
446 27-05-2009 17:10:01 19.1 C 4.43 g/m*3 19.1 C 0 km/h
447 27-05-2009 17:22:01 19.3 C 4.81 g/m*3 19.3 C 0 km/h
448 27-05-2009 17:34:02 18.4 C 4.72 g/m*3 18.4 C 0 km/h
449 27-05-2009 17:46:01 17.9 C 4.89 g/m*3 17.9 C 0 km/h
450 27-05-2009 17:58:01 18 C 4.76 g/m*3 18 C 0 km/h
Sensor: Nr:Datum:Temp:Abs-Feuchte:Windchill:Wind:
Aussen-T/F 451 27-05-2009 18:10:02 17.5 C 4.62 g/m*3 17.5 C 0 km/h
452 27-05-2009 18:22:01 17.4 C 4.45 g/m*3 17.4 C 0 km/h
453 27-05-2009 18:34:02 17.2 C 4.39 g/m*3 17.2 C 0 km/h
454 27-05-2009 18:46:01 17.5 C 4.62 g/m*3 17.5 C 0 km/h
455 27-05-2009 18:58:01 17.4 C 4.74 g/m*3 17.4 C 0 km/h
456 27-05-2009 19:10:02 17.5 C 4.92 g/m*3 17.5 C 0 km/h
457 27-05-2009 19:22:01 17.7 C 4.98 g/m*3 17.7 C 0 km/h
458 27-05-2009 19:34:01 17.3 C 4.86 g/m*3 17.3 C 0 km/h
459 27-05-2009 19:46:01 17.2 C 5.13 g/m*3 17.2 C 0 km/h
460 27-05-2009 19:58:01 17.1 C 5.09 g/m*3 17.1 C 0 km/h
461 27-05-2009 20:10:01 16.8 C 5.15 g/m*3 16.8 C 0 km/h
462 27-05-2009 20:22:02 16.6 C 5.23 g/m*3 16.6 C 0 km/h
463 27-05-2009 20:34:01 16.3 C 5.13 g/m*3 16.3 C 0 km/h
464 27-05-2009 20:46:02 16 C 5.31 g/m*3 16 C 0 km/h
465 27-05-2009 20:58:02 15.5 C 5.02 g/m*3 15.5 C 0 km/h
466 27-05-2009 21:10:01 15 C 5.26 g/m*3 15 C 0 km/h
467 27-05-2009 21:22:01 14.7 C 5.54 g/m*3 14.7 C 0 km/h
468 27-05-2009 21:34:01 14.4 C 5.56 g/m*3 14.4 C 0 km/h
469 27-05-2009 21:46:01 14.5 C 5.72 g/m*3 14.5 C 0 km/h
470 27-05-2009 21:58:01 14.5 C 5.72 g/m*3 14.5 C 0 km/h
471 27-05-2009 22:10:01 14.3 C 5.77 g/m*3 14.3 C 0 km/h
472 27-05-2009 22:22:40 14.2 C 5.74 g/m*3 14.2 C 0 km/h
473 27-05-2009 22:34:40 13.8 C 6.2 g/m*3 13.8 C 0 km/h
474 27-05-2009 22:46:40 13.3 C 6.12 g/m*3 13.3 C 0 km/h
475 27-05-2009 22:58:40 13.5 C 6.32 g/m*3 13.5 C 0 km/h
Sensor: Nr:Datum:Temp:Abs-Feuchte:Windchill:Wind:
Aussen-T/F 476 27-05-2009 23:10:41 13.2 C 6.2 g/m*3 13.2 C 0 km/h
477 27-05-2009 23:22:41 13.2 C 6.09 g/m*3 13.2 C 0 km/h
478 27-05-2009 23:34:41 13.3 C 5.89 g/m*3 13.3 C 0 km/h
479 27-05-2009 23:46:41 13.6 C 5.77 g/m*3 13.6 C 0 km/h
480 27-05-2009 23:58:41 13.6 C 5.77 g/m*3 13.6 C 0 km/h
481 28-05-2009 00:10:41 13.4 C 5.7 g/m*3 13.4 C 0 km/h
482 28-05-2009 00:22:41 13.4 C 5.58 g/m*3 13.4 C 0 km/h
483 28-05-2009 00:34:41 13.4 C 5.7 g/m*3 13.4 C 0 km/h
484 28-05-2009 00:46:41 13.3 C 5.66 g/m*3 13.3 C 0 km/h
485 28-05-2009 00:58:41 13.2 C 5.74 g/m*3 13.2 C 0 km/h
486 28-05-2009 01:10:41 13.2 C 5.86 g/m*3 13.2 C 0 km/h
487 28-05-2009 01:22:41 13.1 C 5.93 g/m*3 13.1 C 0 km/h
488 28-05-2009 01:34:41 13.1 C 6.05 g/m*3 13.1 C 0 km/h
489 28-05-2009 01:46:41 13 C 6.12 g/m*3 13 C 0 km/h
490 28-05-2009 01:58:41 13.1 C 6.28 g/m*3 13.1 C 0 km/h
491 28-05-2009 02:10:41 13.1 C 6.28 g/m*3 13.1 C 0 km/h
492 28-05-2009 02:22:41 12.9 C 6.65 g/m*3 12.9 C 0 km/h
493 28-05-2009 02:34:41 12.3 C 7.06 g/m*3 12.3 C 0 km/h
494 28-05-2009 02:46:41 12.7 C 6.79 g/m*3 12.7 C 0 km/h
495 28-05-2009 02:58:41 12.9 C 6.65 g/m*3 12.9 C 0 km/h
496 28-05-2009 03:10:41 13 C 6.46 g/m*3 13 C 0 km/h
497 28-05-2009 03:22:42 13 C 6.58 g/m*3 13 C 0 km/h
498 28-05-2009 03:34:42 12.7 C 6.68 g/m*3 12.7 C 0 km/h
499 28-05-2009 03:46:42 12.7 C 6.79 g/m*3 12.7 C 0 km/h
500 28-05-2009 03:58:42 12.8 C 6.83 g/m*3 12.8 C 0 km/h
Sensor: Nr:Datum:Temp:Abs-Feuchte:Windchill:Wind:
Aussen-T/F 501 28-05-2009 04:10:42 12.9 C 6.88 g/m*3 12.9 C 0 km/h
502 28-05-2009 04:22:42 13 C 6.92 g/m*3 13 C 0 km/h
503 28-05-2009 04:34:42 13 C 6.92 g/m*3 13 C 0 km/h
504 28-05-2009 04:46:42 12.9 C 7.1 g/m*3 12.9 C 0 km/h
505 28-05-2009 04:58:42 12.9 C 7.1 g/m*3 12.9 C 0 km/h
506 28-05-2009 05:10:42 12.8 C 7.17 g/m*3 12.8 C 0 km/h
507 28-05-2009 05:22:40 12.8 C 7.39 g/m*3 12.8 C 0 km/h
508 28-05-2009 05:34:40 12.8 C 7.39 g/m*3 12.8 C 0 km/h
509 28-05-2009 05:46:40 12.9 C 7.55 g/m*3 12.9 C 0 km/h
510 28-05-2009 05:58:40 13 C 7.48 g/m*3 13 C 0 km/h
511 28-05-2009 06:10:39 13 C 7.48 g/m*3 13 C 0 km/h
512 28-05-2009 06:22:39 13 C 7.48 g/m*3 13 C 0 km/h
513 28-05-2009 06:34:39 13.1 C 7.53 g/m*3 13.1 C 0 km/h
514 28-05-2009 06:46:39 13.2 C 7.58 g/m*3 13.2 C 0 km/h
515 28-05-2009 06:58:40 13.2 C 7.58 g/m*3 13.2 C 0 km/h
516 28-05-2009 07:10:38 13.3 C 7.63 g/m*3 13.3 C 0 km/h
517 28-05-2009 07:22:39 13.4 C 7.67 g/m*3 13.4 C 0 km/h
518 28-05-2009 07:34:38 13.5 C 7.72 g/m*3 13.5 C 0 km/h
519 28-05-2009 07:46:38 13.6 C 7.89 g/m*3 13.6 C 0 km/h
520 28-05-2009 07:58:39 13.6 C 7.77 g/m*3 13.6 C 0 km/h
521 28-05-2009 08:10:38 13.7 C 7.82 g/m*3 13.7 C 0 km/h
522 28-05-2009 08:22:38 13.9 C 7.91 g/m*3 13.9 C 0 km/h
523 28-05-2009 08:34:38 14.1 C 8.01 g/m*3 14.1 C 0 km/h
524 28-05-2009 08:46:38 14.6 C 8.01 g/m*3 14.6 C 0 km/h
525 28-05-2009 08:58:38 14.8 C 7.85 g/m*3 14.8 C 0 km/h
Sensor: Nr:Datum:Temp:Abs-Feuchte:Windchill:Wind:
Aussen-T/F 526 28-05-2009 09:10:38 15 C 7.95 g/m*3 15 C 0 km/h
527 28-05-2009 09:22:37 14.9 C 8.03 g/m*3 14.9 C 0 km/h
528 28-05-2009 09:34:37 14.9 C 8.16 g/m*3 14.9 C 0 km/h
529 28-05-2009 09:46:37 15.2 C 8.05 g/m*3 15.2 C 0 km/h
530 28-05-2009 09:58:37 15.3 C 8.23 g/m*3 15.3 C 0 km/h
531 28-05-2009 10:10:37 15.4 C 8.15 g/m*3 15.4 C 0 km/h
532 28-05-2009 10:22:37 15.7 C 8.16 g/m*3 15.7 C 0 km/h
533 28-05-2009 10:34:37 15.3 C 8.23 g/m*3 15.3 C 0 km/h
534 28-05-2009 10:46:37 15.4 C 8.28 g/m*3 15.4 C 0 km/h
535 28-05-2009 10:58:37 16 C 8.31 g/m*3 16 C 0 km/h
536 28-05-2009 11:10:36 16.4 C 8.37 g/m*3 16.4 C 0 km/h
537 28-05-2009 11:22:36 16.6 C 8.33 g/m*3 16.6 C 0 km/h
538 28-05-2009 11:34:36 16.8 C 8.44 g/m*3 16.8 C 0 km/h
539 28-05-2009 11:46:36 16.7 C 8.53 g/m*3 16.7 C 0 km/h
540 28-05-2009 11:58:37 16.6 C 8.48 g/m*3 16.6 C 0 km/h
541 28-05-2009 12:10:35 16.2 C 8.55 g/m*3 16.2 C 0 km/h
542 28-05-2009 12:22:36 15.6 C 9.04 g/m*3 15.6 C 0 km/h
543 28-05-2009 12:34:36 14.9 C 9.81 g/m*3 14.9 C 0 km/h
544 28-05-2009 12:46:35 14.9 C 10.07 g/m*3 14.9 C 0 km/h
545 28-05-2009 12:58:35 15 C 10.39 g/m*3 15 C 0 km/h
546 28-05-2009 13:10:36 15.6 C 10.91 g/m*3 15.6 C 0 km/h
547 28-05-2009 13:22:35 15.8 C 10.9 g/m*3 15.8 C 0 km/h
548 28-05-2009 13:34:35 15.7 C 10.84 g/m*3 15.7 C 0 km/h
549 28-05-2009 13:46:34 16.8 C 11.72 g/m*3 16.8 C 0 km/h
550 28-05-2009 13:58:34 17 C 11.14 g/m*3 17 C 0 km/h
Sensor: Nr:Datum:Temp:Abs-Feuchte:Windchill:Wind:
Aussen-T/F 551 28-05-2009 14:10:35 16 C 10.49 g/m*3 16 C 0 km/h
552 28-05-2009 14:22:35 16.7 C 11.51 g/m*3 16.7 C 0 km/h
553 28-05-2009 14:34:34 18.2 C 11.35 g/m*3 18.2 C 0 km/h
554 28-05-2009 14:46:35 18.5 C 10.6 g/m*3 18.5 C 0 km/h
555 28-05-2009 14:58:35 17.9 C 10.54 g/m*3 17.9 C 0 km/h
556 28-05-2009 15:10:34 16.8 C 10.44 g/m*3 16.8 C 0 km/h
557 28-05-2009 15:22:34 17.1 C 10.77 g/m*3 17.1 C 0 km/h
558 28-05-2009 15:34:33 18.3 C 10.16 g/m*3 18.3 C 0 km/h
559 28-05-2009 15:46:34 19.3 C 9.62 g/m*3 19.3 C 0 km/h
560 28-05-2009 15:58:35 18.5 C 9.97 g/m*3 18.5 C 0 km/h
561 28-05-2009 16:10:33 18.5 C 9.49 g/m*3 18.5 C 0 km/h
562 28-05-2009 16:22:33 18.3 C 9.22 g/m*3 18.3 C 0 km/h
563 28-05-2009 16:34:34 20.3 C 9.5 g/m*3 20.3 C 0 km/h
564 28-05-2009 16:46:33 20.6 C 8.95 g/m*3 20.6 C 0 km/h
565 28-05-2009 16:58:33 19.4 C 9.01 g/m*3 19.4 C 0 km/h
566 28-05-2009 17:10:33 19.1 C 9.02 g/m*3 19.1 C 0 km/h
567 28-05-2009 17:22:33 19.7 C 9 g/m*3 19.7 C 0 km/h
568 28-05-2009 17:34:33 19.4 C 9.01 g/m*3 19.4 C 0 km/h
569 28-05-2009 17:46:33 19.3 C 8.79 g/m*3 19.3 C 0 km/h
570 28-05-2009 17:58:33 18.9 C 7.94 g/m*3 18.9 C 0 km/h
571 28-05-2009 18:10:32 18.7 C 8.33 g/m*3 18.7 C 0 km/h
572 28-05-2009 18:22:33 18.4 C 8.49 g/m*3 18.4 C 0 km/h
573 28-05-2009 18:34:32 18.3 C 8.44 g/m*3 18.3 C 0 km/h
574 28-05-2009 18:46:32 18.1 C 8.65 g/m*3 18.1 C 0 km/h
575 28-05-2009 18:58:32 18.5 C 8.7 g/m*3 18.5 C 0 km/h
Sensor: Nr:Datum:Temp:Abs-Feuchte:Windchill:Wind:
Aussen-T/F 576 28-05-2009 19:10:32 18.5 C 9.02 g/m*3 18.5 C 0 km/h
577 28-05-2009 19:22:31 18 C 9.06 g/m*3 18 C 0 km/h
578 28-05-2009 19:34:31 17.7 C 9.35 g/m*3 17.7 C 0 km/h
579 28-05-2009 19:46:31 17.5 C 9.09 g/m*3 17.5 C 0 km/h
580 28-05-2009 19:58:31 17.5 C 9.09 g/m*3 17.5 C 0 km/h
581 28-05-2009 20:10:31 17.5 C 8.95 g/m*3 17.5 C 0 km/h
582 28-05-2009 20:22:31 17.5 C 9.09 g/m*3 17.5 C 0 km/h
583 28-05-2009 20:34:31 17.5 C 9.09 g/m*3 17.5 C 0 km/h
584 28-05-2009 20:46:31 17.4 C 8.74 g/m*3 17.4 C 0 km/h
585 28-05-2009 20:58:32 17.2 C 8.64 g/m*3 17.2 C 0 km/h
586 28-05-2009 21:10:31 16.6 C 8.76 g/m*3 16.6 C 0 km/h
587 28-05-2009 21:22:31 16.2 C 8.55 g/m*3 16.2 C 0 km/h
588 28-05-2009 21:34:30 16.3 C 8.05 g/m*3 16.3 C 0 km/h
589 28-05-2009 21:47:31 16.2 C 8 g/m*3 16.2 C 0 km/h
590 28-05-2009 21:59:31 16 C 8.17 g/m*3 16 C 0 km/h
591 28-05-2009 22:11:31 15.8 C 8.21 g/m*3 15.8 C 0 km/h
592 28-05-2009 22:23:31 15.6 C 8.25 g/m*3 15.6 C 0 km/h
593 28-05-2009 22:35:31 15.5 C 8.2 g/m*3 15.5 C 0 km/h
594 28-05-2009 22:47:31 15.7 C 8.16 g/m*3 15.7 C 0 km/h
595 28-05-2009 22:59:31 15.8 C 8.08 g/m*3 15.8 C 0 km/h
596 28-05-2009 23:11:31 15.8 C 8.08 g/m*3 15.8 C 0 km/h
597 28-05-2009 23:23:31 15.6 C 7.98 g/m*3 15.6 C 0 km/h
598 28-05-2009 23:35:31 15.5 C 7.93 g/m*3 15.5 C 0 km/h
599 28-05-2009 23:47:31 15.6 C 7.98 g/m*3 15.6 C 0 km/h
600 28-05-2009 23:59:31 15.6 C 7.71 g/m*3 15.6 C 0 km/h
Sensor: Nr:Datum:Temp:Abs-Feuchte:Windchill:Wind:
Aussen-T/F 601 29-05-2009 00:11:31 15.6 C 7.71 g/m*3 15.6 C 0 km/h
602 29-05-2009 00:23:31 15.4 C 7.62 g/m*3 15.4 C 0 km/h
603 29-05-2009 00:35:31 15.1 C 7.61 g/m*3 15.1 C 0 km/h
604 29-05-2009 00:47:31 14.6 C 7.76 g/m*3 14.6 C 0 km/h
605 29-05-2009 00:59:31 14.2 C 7.69 g/m*3 14.2 C 0 km/h
606 29-05-2009 01:11:32 13.9 C 7.91 g/m*3 13.9 C 0 km/h
607 29-05-2009 01:23:32 13.5 C 7.84 g/m*3 13.5 C 0 km/h
608 29-05-2009 01:35:32 13.2 C 7.92 g/m*3 13.2 C 0 km/h
609 29-05-2009 01:47:32 13 C 7.94 g/m*3 13 C 0 km/h
610 29-05-2009 01:59:32 12.8 C 8.06 g/m*3 12.8 C 0 km/h
611 29-05-2009 02:11:32 12.5 C 8.03 g/m*3 12.5 C 0 km/h
612 29-05-2009 02:23:32 12.2 C 7.88 g/m*3 12.2 C 0 km/h
613 29-05-2009 02:35:32 12.1 C 7.94 g/m*3 12.1 C 0 km/h
614 29-05-2009 02:47:32 11.8 C 8 g/m*3 11.8 C 0 km/h
615 29-05-2009 02:59:32 11.6 C 8 g/m*3 11.6 C 0 km/h
616 29-05-2009 03:11:32 11.4 C 8.01 g/m*3 11.4 C 0 km/h
617 29-05-2009 03:23:32 11.1 C 7.86 g/m*3 11.1 C 0 km/h
618 29-05-2009 03:35:32 10.8 C 7.81 g/m*3 10.8 C 0 km/h
619 29-05-2009 03:47:32 10.6 C 7.71 g/m*3 10.6 C 0 km/h
620 29-05-2009 03:59:32 10.5 C 7.76 g/m*3 10.5 C 0 km/h
621 29-05-2009 04:11:32 10.2 C 7.61 g/m*3 10.2 C 0 km/h
622 29-05-2009 04:23:32 10.1 C 7.56 g/m*3 10.1 C 0 km/h
623 29-05-2009 04:35:32 9.9 C 7.56 g/m*3 9.9 C 0 km/h
624 29-05-2009 04:47:32 9.7 C 7.56 g/m*3 9.7 C 0 km/h
625 29-05-2009 04:59:32 9.6 C 7.51 g/m*3 9.6 C 0 km/h
Sensor: Nr:Datum:Temp:Abs-Feuchte:Windchill:Wind:
Aussen-T/F 626 29-05-2009 05:11:33 9.4 C 7.42 g/m*3 9.4 C 0 km/h
627 29-05-2009 05:23:33 9.4 C 7.51 g/m*3 9.4 C 0 km/h
628 29-05-2009 05:35:33 9.4 C 7.6 g/m*3 9.4 C 0 km/h
629 29-05-2009 05:47:33 9.3 C 7.55 g/m*3 9.3 C 0 km/h
630 29-05-2009 05:59:33 9.2 C 7.59 g/m*3 9.2 C 0 km/h
631 29-05-2009 06:11:33 9.1 C 7.54 g/m*3 9.1 C 0 km/h
632 29-05-2009 06:23:33 9.1 C 7.63 g/m*3 9.1 C 0 km/h
633 29-05-2009 06:35:33 9.2 C 7.68 g/m*3 9.2 C 0 km/h
634 29-05-2009 06:47:33 9.2 C 7.68 g/m*3 9.2 C 0 km/h
635 29-05-2009 06:59:33 9.3 C 7.73 g/m*3 9.3 C 0 km/h
636 29-05-2009 07:11:31 9.5 C 7.83 g/m*3 9.5 C 0 km/h
637 29-05-2009 07:23:30 9.5 C 7.74 g/m*3 9.5 C 0 km/h
638 29-05-2009 07:35:31 9.7 C 7.84 g/m*3 9.7 C 0 km/h
639 29-05-2009 07:47:30 9.8 C 7.79 g/m*3 9.8 C 0 km/h
640 29-05-2009 07:59:30 10.2 C 7.9 g/m*3 10.2 C 0 km/h
641 29-05-2009 08:11:30 10.5 C 7.76 g/m*3 10.5 C 0 km/h
642 29-05-2009 08:23:30 11.1 C 7.05 g/m*3 11.1 C 0 km/h
643 29-05-2009 08:35:30 11.4 C 6.47 g/m*3 11.4 C 0 km/h
644 29-05-2009 08:47:29 11.8 C 6.31 g/m*3 11.8 C 0 km/h
645 29-05-2009 08:59:29 12.2 C 6.15 g/m*3 12.2 C 0 km/h
646 29-05-2009 09:11:29 12.7 C 5.57 g/m*3 12.7 C 0 km/h
647 29-05-2009 09:23:30 13.2 C 5.17 g/m*3 13.2 C 0 km/h
648 29-05-2009 09:35:29 13.6 C 4.71 g/m*3 13.6 C 0 km/h
649 29-05-2009 09:47:29 13.9 C 4.68 g/m*3 13.9 C 0 km/h
650 29-05-2009 09:59:29 14.1 C 3.76 g/m*3 14.1 C 0 km/h
Sensor: Nr:Datum:Temp:Abs-Feuchte:Windchill:Wind:
Aussen-T/F 651 29-05-2009 10:11:29 14.7 C 3.9 g/m*3 14.7 C 0 km/h
652 29-05-2009 10:23:29 15 C 4.1 g/m*3 15 C 0 km/h
653 29-05-2009 10:35:28 15.9 C 4.33 g/m*3 15.9 C 0 km/h
654 29-05-2009 10:47:29 15.7 C 4.01 g/m*3 15.7 C 0 km/h
655 29-05-2009 10:59:29 16.6 C 4.24 g/m*3 16.6 C 0 km/h
656 29-05-2009 11:11:28 17.5 C 3.73 g/m*3 17.5 C 0 km/h
657 29-05-2009 11:23:28 17 C 3.04 g/m*3 17 C 0 km/h
658 29-05-2009 11:35:28 17.6 C 3.75 g/m*3 17.6 C 0 km/h
659 29-05-2009 11:47:28 18.8 C 3.7 g/m*3 18.8 C 0 km/h
660 29-05-2009 11:59:28 19.6 C 3.55 g/m*3 19.6 C 0 km/h
661 29-05-2009 12:11:28 20.3 C 3.52 g/m*3 20.3 C 0 km/h
662 29-05-2009 12:23:27 20.4 C 3.54 g/m*3 20.4 C 0 km/h
663 29-05-2009 12:35:28 21.7 C 3.82 g/m*3 21.7 C 0 km/h
664 29-05-2009 12:47:27 22.6 C 4.02 g/m*3 22.6 C 0 km/h
665 29-05-2009 12:59:27 23.2 C 4.16 g/m*3 23.2 C 0 km/h
666 29-05-2009 13:11:27 23.4 C 4.21 g/m*3 23.4 C 0 km/h
667 29-05-2009 13:23:27 23.7 C 4.28 g/m*3 23.7 C 0 km/h
668 29-05-2009 13:35:27 24.7 C 4.53 g/m*3 24.7 C 0 km/h
669 29-05-2009 13:47:27 24.8 C 4.55 g/m*3 24.8 C 0 km/h
670 29-05-2009 13:59:27 24 C 4.35 g/m*3 24 C 0 km/h
671 29-05-2009 14:11:26 23 C 4.11 g/m*3 23 C 0 km/h
672 29-05-2009 14:23:26 23.1 C 4.13 g/m*3 23.1 C 0 km/h
673 29-05-2009 14:35:26 22.6 C 4.02 g/m*3 22.6 C 0 km/h
674 29-05-2009 14:47:26 23.3 C 4.18 g/m*3 23.3 C 0 km/h
675 29-05-2009 14:59:26 24.6 C 4.5 g/m*3 24.6 C 0 km/h
Sensor: Nr:Datum:Temp:Abs-Feuchte:Windchill:Wind:
Aussen-T/F 676 29-05-2009 15:11:26 25 C 4.6 g/m*3 25 C 0 km/h
677 29-05-2009 15:23:26 25.6 C 4.76 g/m*3 25.6 C 0 km/h
678 29-05-2009 15:35:26 26.6 C 5.03 g/m*3 26.6 C 0 km/h
679 29-05-2009 15:47:26 26.2 C 4.92 g/m*3 26.2 C 0 km/h
680 29-05-2009 15:59:26 26.1 C 4.9 g/m*3 26.1 C 0 km/h
681 29-05-2009 16:11:25 27.3 C 5.23 g/m*3 27.3 C 0 km/h
682 29-05-2009 16:23:25 27.4 C 5.26 g/m*3 27.4 C 0 km/h
683 29-05-2009 16:35:25 28.4 C 5.56 g/m*3 28.4 C 0 km/h
684 29-05-2009 16:47:25 27.8 C 5.38 g/m*3 27.8 C 0 km/h
685 29-05-2009 16:59:25 26.4 C 4.98 g/m*3 26.4 C 0 km/h
686 29-05-2009 17:11:24 28 C 5.44 g/m*3 28 C 0 km/h
687 29-05-2009 17:23:25 28 C 5.44 g/m*3 28 C 0 km/h
688 29-05-2009 17:35:25 29 C 5.74 g/m*3 29 C 0 km/h
689 29-05-2009 17:47:24 28.8 C 5.68 g/m*3 28.8 C 0 km/h
690 29-05-2009 17:59:24 28.3 C 5.53 g/m*3 28.3 C 0 km/h
691 29-05-2009 18:11:25 27.9 C 5.41 g/m*3 27.9 C 0 km/h
692 29-05-2009 18:23:24 28.6 C 5.62 g/m*3 28.6 C 0 km/h
693 29-05-2009 18:35:24 28.7 C 5.65 g/m*3 28.7 C 0 km/h
694 29-05-2009 18:47:24 27.6 C 5.32 g/m*3 27.6 C 0 km/h
695 29-05-2009 18:59:24 27.1 C 5.18 g/m*3 27.1 C 0 km/h
696 29-05-2009 19:11:24 26.9 C 5.12 g/m*3 26.9 C 0 km/h
697 29-05-2009 19:23:24 26.8 C 5.09 g/m*3 26.8 C 0 km/h
698 29-05-2009 19:35:23 26.6 C 5.03 g/m*3 26.6 C 0 km/h
699 29-05-2009 19:47:24 26.2 C 4.92 g/m*3 26.2 C 0 km/h
700 29-05-2009 19:59:24 25.5 C 4.73 g/m*3 25.5 C 0 km/h
Sensor: Nr:Datum:Temp:Abs-Feuchte:Windchill:Wind:
Aussen-T/F 701 29-05-2009 20:11:23 24.5 C 4.48 g/m*3 24.5 C 0 km/h
702 29-05-2009 20:23:23 23.7 C 4.28 g/m*3 23.7 C 0 km/h
703 29-05-2009 20:35:02 23.2 C 4.16 g/m*3 23.2 C 0 km/h
704 29-05-2009 20:47:02 22.5 C 4.39 g/m*3 22.5 C 0 km/h
705 29-05-2009 20:59:02 21.6 C 5.12 g/m*3 21.6 C 0 km/h
706 29-05-2009 21:11:02 20.2 C 5.07 g/m*3 20.2 C 0 km/h
707 29-05-2009 21:23:02 19.1 C 4.92 g/m*3 19.1 C 0 km/h
708 29-05-2009 21:35:01 18.4 C 5.03 g/m*3 18.4 C 0 km/h
709 29-05-2009 21:47:02 18.1 C 4.94 g/m*3 18.1 C 0 km/h
710 29-05-2009 21:59:02 18 C 4.92 g/m*3 18 C 0 km/h
711 29-05-2009 22:11:01 17.8 C 5.16 g/m*3 17.8 C 0 km/h
712 29-05-2009 22:23:01 17.4 C 5.04 g/m*3 17.4 C 0 km/h
713 29-05-2009 22:35:01 16.8 C 5.15 g/m*3 16.8 C 0 km/h
714 29-05-2009 22:48:02 16.4 C 5.02 g/m*3 16.4 C 0 km/h
715 29-05-2009 23:00:02 16.2 C 5.1 g/m*3 16.2 C 0 km/h
716 29-05-2009 23:12:02 15.7 C 5.08 g/m*3 15.7 C 0 km/h
717 29-05-2009 23:24:03 15.4 C 5.12 g/m*3 15.4 C 0 km/h
718 29-05-2009 23:36:03 15 C 5.13 g/m*3 15 C 0 km/h
719 29-05-2009 23:48:03 14.5 C 5.6 g/m*3 14.5 C 0 km/h
720 30-05-2009 00:00:03 14.4 C 5.44 g/m*3 14.4 C 0 km/h
721 30-05-2009 00:12:03 14.3 C 5.65 g/m*3 14.3 C 0 km/h
722 30-05-2009 00:24:03 14.1 C 5.46 g/m*3 14.1 C 0 km/h
723 30-05-2009 00:36:03 13.8 C 5.48 g/m*3 13.8 C 0 km/h
724 30-05-2009 00:48:03 13.5 C 5.38 g/m*3 13.5 C 0 km/h
725 30-05-2009 01:00:03 13.4 C 5.46 g/m*3 13.4 C 0 km/h
Sensor: Nr:Datum:Temp:Abs-Feuchte:Windchill:Wind:
Aussen-T/F 726 30-05-2009 01:12:03 13 C 5.67 g/m*3 13 C 0 km/h
727 30-05-2009 01:24:03 12.8 C 5.71 g/m*3 12.8 C 0 km/h
728 30-05-2009 01:36:03 12.7 C 5.57 g/m*3 12.7 C 0 km/h
729 30-05-2009 01:48:03 12.4 C 5.79 g/m*3 12.4 C 0 km/h
730 30-05-2009 02:00:03 12.1 C 5.9 g/m*3 12.1 C 0 km/h
731 30-05-2009 02:12:03 11.9 C 6.04 g/m*3 11.9 C 0 km/h
732 30-05-2009 02:24:03 11.6 C 6.03 g/m*3 11.6 C 0 km/h
733 30-05-2009 02:36:03 11.5 C 5.99 g/m*3 11.5 C 0 km/h
734 30-05-2009 02:48:03 11.5 C 6.09 g/m*3 11.5 C 0 km/h
735 30-05-2009 03:00:03 11.4 C 5.95 g/m*3 11.4 C 0 km/h
736 30-05-2009 03:12:03 11.4 C 5.75 g/m*3 11.4 C 0 km/h
737 30-05-2009 03:24:04 11.5 C 5.68 g/m*3 11.5 C 0 km/h
738 30-05-2009 03:36:04 11.4 C 5.75 g/m*3 11.4 C 0 km/h
739 30-05-2009 03:48:04 11.3 C 5.71 g/m*3 11.3 C 0 km/h
740 30-05-2009 04:00:04 11.1 C 5.74 g/m*3 11.1 C 0 km/h
741 30-05-2009 04:12:04 11 C 5.91 g/m*3 11 C 0 km/h
742 30-05-2009 04:24:04 10.8 C 5.93 g/m*3 10.8 C 0 km/h
743 30-05-2009 04:36:04 10.8 C 5.93 g/m*3 10.8 C 0 km/h
744 30-05-2009 04:48:04 10.7 C 5.89 g/m*3 10.7 C 0 km/h
745 30-05-2009 05:00:04 10.6 C 5.95 g/m*3 10.6 C 0 km/h
746 30-05-2009 05:12:04 10.4 C 5.88 g/m*3 10.4 C 0 km/h
747 30-05-2009 05:24:04 10.2 C 6.19 g/m*3 10.2 C 0 km/h
748 30-05-2009 05:36:04 10.1 C 6.34 g/m*3 10.1 C 0 km/h
749 30-05-2009 05:48:04 10 C 6.58 g/m*3 10 C 0 km/h
750 30-05-2009 06:00:04 9.9 C 6.54 g/m*3 9.9 C 0 km/h
Sensor: Nr:Datum:Temp:Abs-Feuchte:Windchill:Wind:
Aussen-T/F 751 30-05-2009 06:12:04 9.9 C 6.54 g/m*3 9.9 C 0 km/h
752 30-05-2009 06:24:04 9.9 C 6.54 g/m*3 9.9 C 0 km/h
753 30-05-2009 06:36:04 9.9 C 6.72 g/m*3 9.9 C 0 km/h
754 30-05-2009 06:48:04 10 C 6.67 g/m*3 10 C 0 km/h
755 30-05-2009 07:00:04 10.1 C 6.71 g/m*3 10.1 C 0 km/h
756 30-05-2009 07:12:04 10.3 C 6.9 g/m*3 10.3 C 0 km/h
757 30-05-2009 07:24:05 10.5 C 6.89 g/m*3 10.5 C 0 km/h
758 30-05-2009 07:36:02 10.8 C 6.92 g/m*3 10.8 C 0 km/h
759 30-05-2009 07:48:02 11.1 C 6.95 g/m*3 11.1 C 0 km/h
760 30-05-2009 08:00:02 11.4 C 6.98 g/m*3 11.4 C 0 km/h
761 30-05-2009 08:12:01 11.7 C 6.9 g/m*3 11.7 C 0 km/h
762 30-05-2009 08:24:02 12.3 C 6.84 g/m*3 12.3 C 0 km/h
763 30-05-2009 08:36:02 12.7 C 6.68 g/m*3 12.7 C 0 km/h
764 30-05-2009 08:48:01 13.4 C 6.51 g/m*3 13.4 C 0 km/h
765 30-05-2009 09:00:01 13.8 C 6.31 g/m*3 13.8 C 0 km/h
766 30-05-2009 09:12:02 14.2 C 6.35 g/m*3 14.2 C 0 km/h
767 30-05-2009 09:24:01 14.8 C 6.33 g/m*3 14.8 C 0 km/h
768 30-05-2009 09:36:01 15.3 C 6.4 g/m*3 15.3 C 0 km/h
769 30-05-2009 09:48:01 15.9 C 6.37 g/m*3 15.9 C 0 km/h
770 30-05-2009 10:00:01 16.5 C 6.32 g/m*3 16.5 C 0 km/h
771 30-05-2009 10:12:01 16.9 C 6.04 g/m*3 16.9 C 0 km/h
772 30-05-2009 10:24:00 17.6 C 6.15 g/m*3 17.6 C 0 km/h
773 30-05-2009 10:36:00 18.2 C 6.22 g/m*3 18.2 C 0 km/h
774 30-05-2009 10:48:00 18.9 C 6.48 g/m*3 18.9 C 0 km/h
775 30-05-2009 11:00:00 19.6 C 6.25 g/m*3 19.6 C 0 km/h
Sensor: Nr:Datum:Temp:Abs-Feuchte:Windchill:Wind:
Aussen-T/F 776 30-05-2009 11:12:00 19.6 C 6.25 g/m*3 19.6 C 0 km/h
777 30-05-2009 11:24:00 19.9 C 6.19 g/m*3 19.9 C 0 km/h
778 30-05-2009 11:36:00 20.6 C 6.26 g/m*3 20.6 C 0 km/h
779 30-05-2009 11:48:00 21.2 C 5.93 g/m*3 21.2 C 0 km/h
780 30-05-2009 12:00:00 21.4 C 5.44 g/m*3 21.4 C 0 km/h
781 30-05-2009 12:12:59 23 C 5.34 g/m*3 23 C 0 km/h
782 30-05-2009 12:24:00 21.6 C 5.5 g/m*3 21.6 C 0 km/h
783 30-05-2009 12:36:00 22.1 C 5.08 g/m*3 22.1 C 0 km/h
784 30-05-2009 12:48:59 22 C 5.05 g/m*3 22 C 0 km/h
785 30-05-2009 13:00:59 21.5 C 5.09 g/m*3 21.5 C 0 km/h
786 30-05-2009 13:11:59 24.3 C 5.09 g/m*3 24.3 C 0 km/h
787 30-05-2009 13:24:59 26.5 C 5.01 g/m*3 26.5 C 0 km/h
788 30-05-2009 13:36:59 26.6 C 5.03 g/m*3 26.6 C 0 km/h
789 30-05-2009 13:48:58 25.8 C 4.82 g/m*3 25.8 C 0 km/h
790 30-05-2009 14:00:59 24.9 C 4.58 g/m*3 24.9 C 0 km/h
791 30-05-2009 14:13:00 23.2 C 4.16 g/m*3 23.2 C 0 km/h
792 30-05-2009 14:24:58 22.7 C 4.65 g/m*3 22.7 C 0 km/h
793 30-05-2009 14:36:58 24.1 C 4.38 g/m*3 24.1 C 0 km/h
794 30-05-2009 14:48:58 25.7 C 4.79 g/m*3 25.7 C 0 km/h
795 30-05-2009 15:00:58 25.4 C 4.71 g/m*3 25.4 C 0 km/h
796 30-05-2009 15:12:58 25.1 C 4.63 g/m*3 25.1 C 0 km/h
797 30-05-2009 15:24:58 25.7 C 4.79 g/m*3 25.7 C 0 km/h
798 30-05-2009 15:36:57 26.6 C 5.03 g/m*3 26.6 C 0 km/h
799 30-05-2009 15:48:58 25.3 C 4.68 g/m*3 25.3 C 0 km/h
800 30-05-2009 16:00:57 26 C 4.87 g/m*3 26 C 0 km/h
Sensor: Nr:Datum:Temp:Abs-Feuchte:Windchill:Wind:
Aussen-T/F 801 30-05-2009 16:12:57 27.5 C 5.29 g/m*3 27.5 C 0 km/h
802 30-05-2009 16:24:57 28.2 C 5.5 g/m*3 28.2 C 0 km/h
803 30-05-2009 16:36:58 28.2 C 5.5 g/m*3 28.2 C 0 km/h
804 30-05-2009 16:48:57 29.1 C 5.78 g/m*3 29.1 C 0 km/h
805 30-05-2009 17:00:57 28.6 C 5.62 g/m*3 28.6 C 0 km/h
806 30-05-2009 17:12:57 28.3 C 5.53 g/m*3 28.3 C 0 km/h
807 30-05-2009 17:24:57 26.9 C 5.12 g/m*3 26.9 C 0 km/h
808 30-05-2009 17:36:57 25.1 C 4.63 g/m*3 25.1 C 0 km/h
809 30-05-2009 17:48:56 27.9 C 5.41 g/m*3 27.9 C 0 km/h
810 30-05-2009 18:00:56 28.6 C 5.62 g/m*3 28.6 C 0 km/h
811 30-05-2009 18:12:57 29.4 C 5.87 g/m*3 29.4 C 0 km/h
812 30-05-2009 18:24:56 26.6 C 5.03 g/m*3 26.6 C 0 km/h
813 30-05-2009 18:36:56 25.2 C 4.66 g/m*3 25.2 C 0 km/h
814 30-05-2009 18:48:55 25.7 C 4.79 g/m*3 25.7 C 0 km/h
815 30-05-2009 19:00:56 26.9 C 5.12 g/m*3 26.9 C 0 km/h
816 30-05-2009 19:12:56 27.2 C 5.2 g/m*3 27.2 C 0 km/h
817 30-05-2009 19:24:56 27.1 C 5.18 g/m*3 27.1 C 0 km/h
818 30-05-2009 19:36:55 26.8 C 5.09 g/m*3 26.8 C 0 km/h
819 30-05-2009 19:48:56 26.1 C 4.9 g/m*3 26.1 C 0 km/h
820 30-05-2009 20:00:55 25.5 C 4.73 g/m*3 25.5 C 0 km/h
821 30-05-2009 20:12:55 25.1 C 4.86 g/m*3 25.1 C 0 km/h
822 30-05-2009 20:24:55 24.5 C 4.92 g/m*3 24.5 C 0 km/h
823 30-05-2009 20:36:55 23.6 C 5.32 g/m*3 23.6 C 0 km/h
824 30-05-2009 20:48:55 22.6 C 5.42 g/m*3 22.6 C 0 km/h
825 30-05-2009 21:00:55 21.6 C 5.88 g/m*3 21.6 C 0 km/h
Sensor: Nr:Datum:Temp:Abs-Feuchte:Windchill:Wind:
Aussen-T/F 826 30-05-2009 21:12:56 20.9 C 6.19 g/m*3 20.9 C 0 km/h
827 30-05-2009 21:24:54 20.4 C 6.19 g/m*3 20.4 C 0 km/h
828 30-05-2009 21:36:54 19.7 C 6.28 g/m*3 19.7 C 0 km/h
829 30-05-2009 21:48:54 19.6 C 6.58 g/m*3 19.6 C 0 km/h
830 30-05-2009 22:00:54 18.9 C 6.48 g/m*3 18.9 C 0 km/h
831 30-05-2009 22:12:54 18.7 C 6.72 g/m*3 18.7 C 0 km/h
832 30-05-2009 22:24:54 18.2 C 6.53 g/m*3 18.2 C 0 km/h
833 30-05-2009 22:36:54 17.8 C 6.68 g/m*3 17.8 C 0 km/h
834 30-05-2009 22:48:54 17.5 C 6.71 g/m*3 17.5 C 0 km/h
835 30-05-2009 23:01:54 17.5 C 6.86 g/m*3 17.5 C 0 km/h
836 30-05-2009 23:13:54 17.3 C 6.78 g/m*3 17.3 C 0 km/h
837 30-05-2009 23:25:54 17.2 C 6.88 g/m*3 17.2 C 0 km/h
838 30-05-2009 23:37:54 17 C 6.95 g/m*3 17 C 0 km/h
839 30-05-2009 23:49:54 17 C 6.95 g/m*3 17 C 0 km/h
840 31-05-2009 00:01:54 16.6 C 6.92 g/m*3 16.6 C 0 km/h
841 31-05-2009 00:13:54 16.4 C 7.12 g/m*3 16.4 C 0 km/h
842 31-05-2009 00:25:54 16.3 C 7.21 g/m*3 16.3 C 0 km/h
843 31-05-2009 00:37:54 16.6 C 7.35 g/m*3 16.6 C 0 km/h
844 31-05-2009 00:49:55 16.7 C 7.39 g/m*3 16.7 C 0 km/h
845 31-05-2009 01:01:55 16.7 C 7.39 g/m*3 16.7 C 0 km/h
846 31-05-2009 01:13:55 16.4 C 7.4 g/m*3 16.4 C 0 km/h
847 31-05-2009 01:25:55 16 C 7.36 g/m*3 16 C 0 km/h
848 31-05-2009 01:37:55 15.5 C 7.4 g/m*3 15.5 C 0 km/h
849 31-05-2009 01:49:55 15.6 C 7.71 g/m*3 15.6 C 0 km/h
850 31-05-2009 02:01:55 15.8 C 7.67 g/m*3 15.8 C 0 km/h
Sensor: Nr:Datum:Temp:Abs-Feuchte:Windchill:Wind:
Aussen-T/F 851 31-05-2009 02:13:55 15.8 C 7.67 g/m*3 15.8 C 0 km/h
852 31-05-2009 02:25:55 15.7 C 7.76 g/m*3 15.7 C 0 km/h
853 31-05-2009 02:37:55 15.9 C 7.85 g/m*3 15.9 C 0 km/h
854 31-05-2009 02:49:55 15.9 C 7.85 g/m*3 15.9 C 0 km/h
855 31-05-2009 03:01:55 15.8 C 7.81 g/m*3 15.8 C 0 km/h
856 31-05-2009 03:13:55 15.9 C 7.72 g/m*3 15.9 C 0 km/h
857 31-05-2009 03:25:55 15.6 C 7.71 g/m*3 15.6 C 0 km/h
858 31-05-2009 03:37:55 15.5 C 7.8 g/m*3 15.5 C 0 km/h
859 31-05-2009 03:49:55 15.5 C 7.8 g/m*3 15.5 C 0 km/h
860 31-05-2009 04:01:55 15.6 C 7.98 g/m*3 15.6 C 0 km/h
861 31-05-2009 04:13:55 15.5 C 7.93 g/m*3 15.5 C 0 km/h
862 31-05-2009 04:25:55 15.2 C 7.92 g/m*3 15.2 C 0 km/h
863 31-05-2009 04:37:56 15.4 C 8.01 g/m*3 15.4 C 0 km/h
864 31-05-2009 04:49:56 15.5 C 8.06 g/m*3 15.5 C 0 km/h
865 31-05-2009 05:01:56 15.5 C 8.06 g/m*3 15.5 C 0 km/h
866 31-05-2009 05:13:56 15.4 C 8.01 g/m*3 15.4 C 0 km/h
867 31-05-2009 05:25:56 15.4 C 8.01 g/m*3 15.4 C 0 km/h
868 31-05-2009 05:37:56 15.4 C 8.01 g/m*3 15.4 C 0 km/h
869 31-05-2009 05:49:56 15.4 C 8.15 g/m*3 15.4 C 0 km/h
870 31-05-2009 06:01:56 15.3 C 8.1 g/m*3 15.3 C 0 km/h
871 31-05-2009 06:13:56 15.4 C 8.28 g/m*3 15.4 C 0 km/h
872 31-05-2009 06:25:56 15.6 C 8.38 g/m*3 15.6 C 0 km/h
873 31-05-2009 06:37:56 15.8 C 8.35 g/m*3 15.8 C 0 km/h
874 31-05-2009 06:49:56 15.9 C 8.4 g/m*3 15.9 C 0 km/h
875 31-05-2009 07:01:56 16 C 8.31 g/m*3 16 C 0 km/h
Sensor: Nr:Datum:Temp:Abs-Feuchte:Windchill:Wind:
Aussen-T/F 876 31-05-2009 07:13:56 15.9 C 8.26 g/m*3 15.9 C 0 km/h
877 31-05-2009 07:25:56 16 C 8.31 g/m*3 16 C 0 km/h
878 31-05-2009 07:37:56 16 C 8.58 g/m*3 16 C 0 km/h
879 31-05-2009 07:49:56 16 C 8.58 g/m*3 16 C 0 km/h
880 31-05-2009 08:01:54 15.9 C 8.67 g/m*3 15.9 C 0 km/h
881 31-05-2009 08:13:54 16.2 C 8.83 g/m*3 16.2 C 0 km/h
882 31-05-2009 08:25:54 16.7 C 8.95 g/m*3 16.7 C 0 km/h
883 31-05-2009 08:37:53 17.5 C 8.8 g/m*3 17.5 C 0 km/h
884 31-05-2009 08:49:54 17.6 C 8.7 g/m*3 17.6 C 0 km/h
885 31-05-2009 09:01:53 17.7 C 8.75 g/m*3 17.7 C 0 km/h
886 31-05-2009 09:13:53 18.3 C 8.6 g/m*3 18.3 C 0 km/h
887 31-05-2009 09:25:53 18.6 C 8.59 g/m*3 18.6 C 0 km/h
888 31-05-2009 09:37:54 18.9 C 8.59 g/m*3 18.9 C 0 km/h
889 31-05-2009 09:49:53 18.9 C 8.26 g/m*3 18.9 C 0 km/h
890 31-05-2009 10:01:53 19.3 C 8.29 g/m*3 19.3 C 0 km/h
891 31-05-2009 10:13:53 20.1 C 8.34 g/m*3 20.1 C 0 km/h
892 31-05-2009 10:25:53 20.4 C 7.96 g/m*3 20.4 C 0 km/h
893 31-05-2009 10:37:53 20.5 C 8.01 g/m*3 20.5 C 0 km/h
894 31-05-2009 10:49:52 20.5 C 8.19 g/m*3 20.5 C 0 km/h
895 31-05-2009 11:01:53 20.9 C 8.01 g/m*3 20.9 C 0 km/h
896 31-05-2009 11:13:54 21.2 C 7.78 g/m*3 21.2 C 0 km/h
897 31-05-2009 11:25:52 21.4 C 7.5 g/m*3 21.4 C 0 km/h
898 31-05-2009 11:37:52 21.9 C 7.53 g/m*3 21.9 C 0 km/h
899 31-05-2009 11:49:51 22.4 C 7.35 g/m*3 22.4 C 0 km/h
900 31-05-2009 12:01:52 23.3 C 7.11 g/m*3 23.3 C 0 km/h
Sensor: Nr:Datum:Temp:Abs-Feuchte:Windchill:Wind:
Aussen-T/F 901 31-05-2009 12:13:52 23.9 C 7.14 g/m*3 23.9 C 0 km/h
902 31-05-2009 12:25:52 23 C 6.78 g/m*3 23 C 0 km/h
903 31-05-2009 12:37:51 22.7 C 7.07 g/m*3 22.7 C 0 km/h
904 31-05-2009 12:49:52 22.2 C 7.07 g/m*3 22.2 C 0 km/h
905 31-05-2009 13:01:51 23.1 C 6.82 g/m*3 23.1 C 0 km/h
906 31-05-2009 13:13:51 25.6 C 6.43 g/m*3 25.6 C 0 km/h
907 31-05-2009 13:25:51 26.1 C 5.39 g/m*3 26.1 C 0 km/h
908 31-05-2009 13:37:51 23.5 C 6.13 g/m*3 23.5 C 0 km/h
909 31-05-2009 13:49:51 23.1 C 5.99 g/m*3 23.1 C 0 km/h
910 31-05-2009 14:01:51 24.5 C 6.49 g/m*3 24.5 C 0 km/h
911 31-05-2009 14:13:51 25 C 6.22 g/m*3 25 C 0 km/h
912 31-05-2009 14:25:50 25.4 C 5.89 g/m*3 25.4 C 0 km/h
913 31-05-2009 14:37:51 25.7 C 5.99 g/m*3 25.7 C 0 km/h
914 31-05-2009 14:49:50 25.6 C 5.95 g/m*3 25.6 C 0 km/h
915 31-05-2009 15:01:50 25.8 C 5.3 g/m*3 25.8 C 0 km/h
916 31-05-2009 15:13:50 26.3 C 5.2 g/m*3 26.3 C 0 km/h
917 31-05-2009 15:25:50 25.6 C 5 g/m*3 25.6 C 0 km/h
918 31-05-2009 15:37:50 26.7 C 5.32 g/m*3 26.7 C 0 km/h
919 31-05-2009 15:49:49 27.4 C 5.26 g/m*3 27.4 C 0 km/h
920 31-05-2009 16:01:50 27.1 C 5.18 g/m*3 27.1 C 0 km/h
921 31-05-2009 16:13:50 27.1 C 5.18 g/m*3 27.1 C 0 km/h
922 31-05-2009 16:25:50 28.1 C 5.47 g/m*3 28.1 C 0 km/h
923 31-05-2009 16:37:49 27.1 C 5.18 g/m*3 27.1 C 0 km/h
924 31-05-2009 16:49:50 27 C 5.15 g/m*3 27 C 0 km/h
925 31-05-2009 17:01:49 25.4 C 5.41 g/m*3 25.4 C 0 km/h
Sensor: Nr:Datum:Temp:Abs-Feuchte:Windchill:Wind:
Aussen-T/F 926 31-05-2009 17:13:49 25.5 C 5.21 g/m*3 25.5 C 0 km/h
927 31-05-2009 17:25:49 25.8 C 5.3 g/m*3 25.8 C 0 km/h
928 31-05-2009 17:37:48 25.8 C 5.54 g/m*3 25.8 C 0 km/h
929 31-05-2009 17:49:49 25.5 C 5.21 g/m*3 25.5 C 0 km/h
930 31-05-2009 18:01:48 24.8 C 5.46 g/m*3 24.8 C 0 km/h
931 31-05-2009 18:13:48 27.5 C 5.29 g/m*3 27.5 C 0 km/h
932 31-05-2009 18:25:48 25.6 C 5.24 g/m*3 25.6 C 0 km/h
933 31-05-2009 18:37:49 25.7 C 5.75 g/m*3 25.7 C 0 km/h
934 31-05-2009 18:49:48 27 C 5.4 g/m*3 27 C 0 km/h
935 31-05-2009 19:01:48 27.5 C 5.56 g/m*3 27.5 C 0 km/h
936 31-05-2009 19:13:48 27.5 C 5.56 g/m*3 27.5 C 0 km/h
937 31-05-2009 19:25:48 27.6 C 5.59 g/m*3 27.6 C 0 km/h
938 31-05-2009 19:37:47 26.8 C 5.6 g/m*3 26.8 C 0 km/h
939 31-05-2009 19:49:48 25.6 C 5.95 g/m*3 25.6 C 0 km/h
940 31-05-2009 20:01:47 24.1 C 5.69 g/m*3 24.1 C 0 km/h
941 31-05-2009 20:13:47 24.1 C 5.91 g/m*3 24.1 C 0 km/h
942 31-05-2009 20:25:48 23.3 C 6.06 g/m*3 23.3 C 0 km/h
943 31-05-2009 20:37:47 22.9 C 6.34 g/m*3 22.9 C 0 km/h
944 31-05-2009 20:49:47 22.2 C 6.48 g/m*3 22.2 C 0 km/h
945 31-05-2009 21:01:47 21.4 C 6.75 g/m*3 21.4 C 0 km/h
946 31-05-2009 21:13:47 20.8 C 6.88 g/m*3 20.8 C 0 km/h
947 31-05-2009 21:25:47 20 C 6.57 g/m*3 20 C 0 km/h
948 31-05-2009 21:37:46 19.6 C 6.75 g/m*3 19.6 C 0 km/h
949 31-05-2009 21:49:47 19.2 C 6.76 g/m*3 19.2 C 0 km/h
950 31-05-2009 22:01:46 18.9 C 6.97 g/m*3 18.9 C 0 km/h
Sensor: Nr:Datum:Temp:Abs-Feuchte:Windchill:Wind:
Aussen-T/F 951 31-05-2009 22:13:46 18.6 C 7 g/m*3 18.6 C 0 km/h
952 31-05-2009 22:25:46 18.4 C 7.08 g/m*3 18.4 C 0 km/h
953 31-05-2009 22:37:46 18 C 7.07 g/m*3 18 C 0 km/h
954 31-05-2009 22:49:01 17.8 C 7.29 g/m*3 17.8 C 0 km/h
955 31-05-2009 23:01:01 17.7 C 7.24 g/m*3 17.7 C 0 km/h
956 31-05-2009 23:13:01 17.4 C 7.26 g/m*3 17.4 C 0 km/h
957 31-05-2009 23:25:01 17.2 C 7.32 g/m*3 17.2 C 0 km/h
958 31-05-2009 23:37:01 16.9 C 7.34 g/m*3 16.9 C 0 km/h
959 31-05-2009 23:49:00 16.6 C 7.35 g/m*3 16.6 C 0 km/h
960 01-06-2009 00:01:00 16.6 C 7.49 g/m*3 16.6 C 0 km/h
961 01-06-2009 00:13:00 16.3 C 7.49 g/m*3 16.3 C 0 km/h
962 01-06-2009 00:26:01 16.1 C 7.54 g/m*3 16.1 C 0 km/h
963 01-06-2009 00:38:01 15.9 C 7.85 g/m*3 15.9 C 0 km/h
964 01-06-2009 00:50:01 15.6 C 7.85 g/m*3 15.6 C 0 km/h
965 01-06-2009 01:02:01 15.6 C 7.98 g/m*3 15.6 C 0 km/h
966 01-06-2009 01:14:01 15.2 C 7.92 g/m*3 15.2 C 0 km/h
967 01-06-2009 01:26:01 14.9 C 7.9 g/m*3 14.9 C 0 km/h
968 01-06-2009 01:38:01 14.8 C 8.11 g/m*3 14.8 C 0 km/h
969 01-06-2009 01:50:01 14.6 C 8.01 g/m*3 14.6 C 0 km/h
970 01-06-2009 02:02:01 14.5 C 7.96 g/m*3 14.5 C 0 km/h
971 01-06-2009 02:14:01 14.3 C 8.11 g/m*3 14.3 C 0 km/h
972 01-06-2009 02:26:01 14.1 C 8.13 g/m*3 14.1 C 0 km/h
973 01-06-2009 02:38:01 13.7 C 8.05 g/m*3 13.7 C 0 km/h
974 01-06-2009 02:50:01 13.8 C 8.22 g/m*3 13.8 C 0 km/h
975 01-06-2009 03:02:01 13.6 C 8.24 g/m*3 13.6 C 0 km/h
Sensor: Nr:Datum:Temp:Abs-Feuchte:Windchill:Wind:
Aussen-T/F 976 01-06-2009 03:14:01 13.4 C 8.25 g/m*3 13.4 C 0 km/h
977 01-06-2009 03:26:01 13.3 C 8.2 g/m*3 13.3 C 0 km/h
978 01-06-2009 03:38:01 13.1 C 8.22 g/m*3 13.1 C 0 km/h
979 01-06-2009 03:50:01 13 C 8.28 g/m*3 13 C 0 km/h
980 01-06-2009 04:02:01 12.9 C 8.34 g/m*3 12.9 C 0 km/h
981 01-06-2009 04:14:02 12.8 C 8.4 g/m*3 12.8 C 0 km/h
982 01-06-2009 04:26:02 12.6 C 8.3 g/m*3 12.6 C 0 km/h
983 01-06-2009 04:38:02 12.5 C 8.36 g/m*3 12.5 C 0 km/h
984 01-06-2009 04:50:02 12.4 C 8.3 g/m*3 12.4 C 0 km/h
985 01-06-2009 05:02:02 12.2 C 8.2 g/m*3 12.2 C 0 km/h
986 01-06-2009 05:14:02 12.3 C 8.25 g/m*3 12.3 C 0 km/h
987 01-06-2009 05:26:02 12.4 C 8.41 g/m*3 12.4 C 0 km/h
988 01-06-2009 05:38:02 12.6 C 8.52 g/m*3 12.6 C 0 km/h
989 01-06-2009 05:50:02 12.8 C 8.51 g/m*3 12.8 C 0 km/h
990 01-06-2009 06:02:02 12.8 C 8.51 g/m*3 12.8 C 0 km/h
991 01-06-2009 06:14:02 13 C 8.39 g/m*3 13 C 0 km/h
992 01-06-2009 06:26:02 13.2 C 8.5 g/m*3 13.2 C 0 km/h
993 01-06-2009 06:38:02 13.2 C 8.38 g/m*3 13.2 C 0 km/h
994 01-06-2009 06:50:02 13.5 C 8.54 g/m*3 13.5 C 0 km/h
995 01-06-2009 07:02:02 13.5 C 8.54 g/m*3 13.5 C 0 km/h
996 01-06-2009 07:14:02 13.6 C 8.59 g/m*3 13.6 C 0 km/h
997 01-06-2009 07:26:02 13.8 C 8.7 g/m*3 13.8 C 0 km/h
998 01-06-2009 07:38:02 14.3 C 8.72 g/m*3 14.3 C 0 km/h
999 01-06-2009 07:50:02 14.4 C 8.65 g/m*3 14.4 C 0 km/h
1000 01-06-2009 08:02:03 14.3 C 8.72 g/m*3 14.3 C 0 km/h
Sensor: Nr:Datum:Temp:Abs-Feuchte:Windchill:Wind:
Aussen-T/F 1001 01-06-2009 08:14:03 14.5 C 8.83 g/m*3 14.5 C 0 km/h
1002 01-06-2009 08:26:03 15.1 C 8.9 g/m*3 15.1 C 0 km/h
1003 01-06-2009 08:38:01 15.9 C 8.94 g/m*3 15.9 C 0 km/h
1004 01-06-2009 08:50:01 16.9 C 8.92 g/m*3 16.9 C 0 km/h
1005 01-06-2009 09:02:00 17.1 C 8.73 g/m*3 17.1 C 0 km/h
1006 01-06-2009 09:14:00 17.6 C 9 g/m*3 17.6 C 0 km/h
1007 01-06-2009 09:26:01 18.2 C 8.7 g/m*3 18.2 C 0 km/h
1008 01-06-2009 09:38:01 18.3 C 8.76 g/m*3 18.3 C 0 km/h
1009 01-06-2009 09:50:00 18.7 C 8.81 g/m*3 18.7 C 0 km/h
1010 01-06-2009 10:02:01 19.6 C 8.78 g/m*3 19.6 C 0 km/h
1011 01-06-2009 10:14:01 20.1 C 8.52 g/m*3 20.1 C 0 km/h
1012 01-06-2009 10:26:00 20.8 C 8.87 g/m*3 20.8 C 0 km/h
1013 01-06-2009 10:38:00 21.7 C 9.16 g/m*3 21.7 C 0 km/h
1014 01-06-2009 10:50:00 22.1 C 8.39 g/m*3 22.1 C 0 km/h
1015 01-06-2009 11:14:00 22.5 C 8.39 g/m*3 22.5 C 0 km/h
1016 01-06-2009 11:14:00 22.8 C 8.53 g/m*3 22.8 C 0 km/h
1017 01-06-2009 11:14:00 22.5 C 8.39 g/m*3 22.5 C 0 km/h
1018 01-06-2009 11:14:00 22.8 C 8.53 g/m*3 22.8 C 0 km/h
1019 01-06-2009 11:26:00 22.6 C 8.44 g/m*3 22.6 C 0 km/h
1020 01-06-2009 11:37:59 23.3 C 8.15 g/m*3 23.3 C 0 km/h
1021 01-06-2009 11:50:59 24.5 C 8.06 g/m*3 24.5 C 0 km/h
1022 01-06-2009 12:02:59 24.5 C 7.83 g/m*3 24.5 C 0 km/h
1023 01-06-2009 12:14:58 25.7 C 7.42 g/m*3 25.7 C 0 km/h
1024 01-06-2009 12:26:58 26.5 C 7.76 g/m*3 26.5 C 0 km/h
1025 01-06-2009 12:38:59 26.8 C 7.38 g/m*3 26.8 C 0 km/h
Sensor: Nr:Datum:Temp:Abs-Feuchte:Windchill:Wind:
Aussen-T/F 1026 01-06-2009 12:50:58 26.2 C 7.39 g/m*3 26.2 C 0 km/h
1027 01-06-2009 13:02:58 25.4 C 8.24 g/m*3 25.4 C 0 km/h
1028 01-06-2009 13:14:59 24.8 C 8.65 g/m*3 24.8 C 0 km/h
1029 01-06-2009 13:26:59 25.6 C 8.09 g/m*3 25.6 C 0 km/h
1030 01-06-2009 13:38:58 25.7 C 8.38 g/m*3 25.7 C 0 km/h
1031 01-06-2009 13:50:58 24.4 C 8.46 g/m*3 24.4 C 0 km/h
1032 01-06-2009 14:02:58 19.6 C 9.12 g/m*3 19.6 C 0 km/h
1033 01-06-2009 14:14:58 19 C 11.73 g/m*3 19 C 0 km/h
1034 01-06-2009 14:26:59 20.1 C 12.69 g/m*3 20.1 C 0 km/h
1035 01-06-2009 14:38:57 22.4 C 11.12 g/m*3 22.4 C 0 km/h
1036 01-06-2009 14:50:57 22.7 C 11.11 g/m*3 22.7 C 0 km/h
1037 01-06-2009 15:02:57 22.1 C 12.1 g/m*3 22.1 C 0 km/h
1038 01-06-2009 15:14:57 22.6 C 12.25 g/m*3 22.6 C 0 km/h
1039 01-06-2009 15:26:57 23.7 C 11.55 g/m*3 23.7 C 0 km/h
1040 01-06-2009 15:38:57 23.6 C 11.91 g/m*3 23.6 C 0 km/h
1041 01-06-2009 15:50:57 24.6 C 11.25 g/m*3 24.6 C 0 km/h
1042 01-06-2009 16:02:57 25.9 C 9.44 g/m*3 25.9 C 0 km/h
1043 01-06-2009 16:14:56 26.9 C 8.7 g/m*3 26.9 C 0 km/h
1044 01-06-2009 16:26:56 28.8 C 7.39 g/m*3 28.8 C 0 km/h
1045 01-06-2009 16:38:56 29.4 C 6.75 g/m*3 29.4 C 0 km/h
1046 01-06-2009 16:50:56 25.6 C 6.9 g/m*3 25.6 C 0 km/h
1047 01-06-2009 17:02:56 21.6 C 11.57 g/m*3 21.6 C 0 km/h
1048 01-06-2009 17:14:56 22.4 C 11.72 g/m*3 22.4 C 0 km/h
1049 01-06-2009 17:26:56 23.3 C 11.5 g/m*3 23.3 C 0 km/h
1050 01-06-2009 17:38:56 24.3 C 10.4 g/m*3 24.3 C 0 km/h
Sensor: Nr:Datum:Temp:Abs-Feuchte:Windchill:Wind:
Aussen-T/F 1051 01-06-2009 17:50:56 24.7 C 9.96 g/m*3 24.7 C 0 km/h
1052 01-06-2009 18:02:55 24.7 C 9.51 g/m*3 24.7 C 0 km/h
1053 01-06-2009 18:14:56 25.4 C 8.95 g/m*3 25.4 C 0 km/h
1054 01-06-2009 18:26:57 25.9 C 9.44 g/m*3 25.9 C 0 km/h
1055 01-06-2009 18:38:55 28 C 8.16 g/m*3 28 C 0 km/h
1056 01-06-2009 18:50:55 27.4 C 8.95 g/m*3 27.4 C 0 km/h
1057 01-06-2009 19:02:54 25.6 C 8.81 g/m*3 25.6 C 0 km/h
1058 01-06-2009 19:14:55 23.7 C 8.34 g/m*3 23.7 C 0 km/h
1059 01-06-2009 19:26:55 24.2 C 8.14 g/m*3 24.2 C 0 km/h
1060 01-06-2009 19:38:55 25.3 C 8.19 g/m*3 25.3 C 0 km/h
1061 01-06-2009 19:50:54 25.3 C 7.73 g/m*3 25.3 C 0 km/h
1062 01-06-2009 20:02:55 25.2 C 7.68 g/m*3 25.2 C 0 km/h
1063 01-06-2009 20:14:54 24.9 C 7.78 g/m*3 24.9 C 0 km/h
1064 01-06-2009 20:26:54 24.5 C 7.61 g/m*3 24.5 C 0 km/h
1065 01-06-2009 20:38:54 23.7 C 7.49 g/m*3 23.7 C 0 km/h
1066 01-06-2009 20:50:54 22.6 C 7.83 g/m*3 22.6 C 0 km/h
1067 01-06-2009 21:02:53 22.1 C 8.59 g/m*3 22.1 C 0 km/h
1068 01-06-2009 21:14:54 21.1 C 8.48 g/m*3 21.1 C 0 km/h
1069 01-06-2009 21:26:54 20.3 C 8.62 g/m*3 20.3 C 0 km/h
1070 01-06-2009 21:38:54 19.7 C 8.49 g/m*3 19.7 C 0 km/h
1071 01-06-2009 21:50:53 19.3 C 8.63 g/m*3 19.3 C 0 km/h
1072 01-06-2009 22:02:54 19 C 8.64 g/m*3 19 C 0 km/h
1073 01-06-2009 22:14:53 18.6 C 8.91 g/m*3 18.6 C 0 km/h
1074 01-06-2009 22:26:53 18.4 C 8.81 g/m*3 18.4 C 0 km/h
1075 01-06-2009 22:39:09 18.1 C 8.96 g/m*3 18.1 C 0 km/h
Sensor: Nr:Datum:Temp:Abs-Feuchte:Windchill:Wind:
Aussen-T/F 1076 01-06-2009 22:51:09 17.8 C 9.11 g/m*3 17.8 C 0 km/h
1077 01-06-2009 23:03:09 17.4 C 8.89 g/m*3 17.4 C 0 km/h
1078 01-06-2009 23:15:09 17.2 C 8.93 g/m*3 17.2 C 0 km/h
1079 01-06-2009 23:27:09 17 C 9.12 g/m*3 17 C 0 km/h
1080 01-06-2009 23:39:09 16.9 C 9.21 g/m*3 16.9 C 0 km/h
1081 01-06-2009 23:51:09 16.6 C 9.18 g/m*3 16.6 C 0 km/h
1082 02-06-2009 00:03:09 16.4 C 9.21 g/m*3 16.4 C 0 km/h
1083 02-06-2009 00:15:09 16.1 C 9.18 g/m*3 16.1 C 0 km/h
1084 02-06-2009 00:27:09 16 C 9.26 g/m*3 16 C 0 km/h
1085 02-06-2009 00:39:09 15.8 C 9.56 g/m*3 15.8 C 0 km/h
1086 02-06-2009 00:51:09 15.5 C 9.65 g/m*3 15.5 C 0 km/h
1087 02-06-2009 01:03:09 15.3 C 9.66 g/m*3 15.3 C 0 km/h
1088 02-06-2009 01:15:09 15 C 9.62 g/m*3 15 C 0 km/h
1089 02-06-2009 01:27:10 14.9 C 9.69 g/m*3 14.9 C 0 km/h
1090 02-06-2009 01:39:10 14.7 C 9.82 g/m*3 14.7 C 0 km/h
1091 02-06-2009 01:51:10 14.6 C 9.76 g/m*3 14.6 C 0 km/h
1092 02-06-2009 02:03:10 14.4 C 9.64 g/m*3 14.4 C 0 km/h
1093 02-06-2009 02:15:10 14.1 C 9.59 g/m*3 14.1 C 0 km/h
1094 02-06-2009 02:27:10 14 C 9.65 g/m*3 14 C 0 km/h
1095 02-06-2009 02:39:10 13.7 C 9.59 g/m*3 13.7 C 0 km/h
1096 02-06-2009 02:51:10 13.7 C 9.59 g/m*3 13.7 C 0 km/h
1097 02-06-2009 03:03:10 13.7 C 9.59 g/m*3 13.7 C 0 km/h
1098 02-06-2009 03:15:10 13.5 C 9.59 g/m*3 13.5 C 0 km/h
1099 02-06-2009 03:27:10 13.4 C 9.53 g/m*3 13.4 C 0 km/h
1100 02-06-2009 03:39:10 13.4 C 9.53 g/m*3 13.4 C 0 km/h
Sensor: Nr:Datum:Temp:Abs-Feuchte:Windchill:Wind:
Aussen-T/F 1101 02-06-2009 03:51:10 13.4 C 9.53 g/m*3 13.4 C 0 km/h
1102 02-06-2009 04:03:10 13.4 C 9.42 g/m*3 13.4 C 0 km/h
1103 02-06-2009 04:15:10 13.2 C 9.3 g/m*3 13.2 C 0 km/h
1104 02-06-2009 04:27:10 13 C 9.19 g/m*3 13 C 0 km/h
1105 02-06-2009 04:39:10 12.9 C 9.35 g/m*3 12.9 C 0 km/h
1106 02-06-2009 04:51:10 12.8 C 9.3 g/m*3 12.8 C 0 km/h
1107 02-06-2009 05:03:10 12.7 C 9.35 g/m*3 12.7 C 0 km/h
1108 02-06-2009 05:15:11 12.5 C 9.24 g/m*3 12.5 C 0 km/h
1109 02-06-2009 05:27:11 12.4 C 9.18 g/m*3 12.4 C 0 km/h
1110 02-06-2009 05:39:11 12.4 C 9.18 g/m*3 12.4 C 0 km/h
1111 02-06-2009 05:51:11 12.4 C 9.18 g/m*3 12.4 C 0 km/h
1112 02-06-2009 06:03:11 12.4 C 9.18 g/m*3 12.4 C 0 km/h
1113 02-06-2009 06:15:11 12.6 C 9.18 g/m*3 12.6 C 0 km/h
1114 02-06-2009 06:27:11 12.9 C 8.9 g/m*3 12.9 C 0 km/h
1115 02-06-2009 06:39:54 13.1 C 8.22 g/m*3 13.1 C 0 km/h
1116 02-06-2009 06:51:54 13.5 C 7.95 g/m*3 13.5 C 0 km/h
1117 02-06-2009 07:03:53 13.6 C 7.77 g/m*3 13.6 C 0 km/h
1118 02-06-2009 07:15:54 13.7 C 7.7 g/m*3 13.7 C 0 km/h
1119 02-06-2009 07:27:54 13.8 C 7.86 g/m*3 13.8 C 0 km/h
1120 02-06-2009 07:39:53 13.7 C 7.7 g/m*3 13.7 C 0 km/h
1121 02-06-2009 07:51:53 14 C 7.6 g/m*3 14 C 0 km/h
1122 02-06-2009 08:03:53 14.2 C 7.82 g/m*3 14.2 C 0 km/h
1123 02-06-2009 08:15:53 14.4 C 7.91 g/m*3 14.4 C 0 km/h
1124 02-06-2009 08:27:53 14.6 C 7.63 g/m*3 14.6 C 0 km/h
1125 02-06-2009 08:39:53 14.7 C 7.68 g/m*3 14.7 C 0 km/h
Sensor: Nr:Datum:Temp:Abs-Feuchte:Windchill:Wind:
Aussen-T/F 1126 02-06-2009 08:51:53 15.1 C 7.74 g/m*3 15.1 C 0 km/h
1127 02-06-2009 09:03:53 15.5 C 7.8 g/m*3 15.5 C 0 km/h
1128 02-06-2009 09:15:52 15.8 C 7.81 g/m*3 15.8 C 0 km/h
1129 02-06-2009 09:27:52 16 C 7.63 g/m*3 16 C 0 km/h
1130 02-06-2009 09:39:53 16.5 C 7.86 g/m*3 16.5 C 0 km/h
1131 02-06-2009 09:51:52 17 C 7.81 g/m*3 17 C 0 km/h
1132 02-06-2009 10:03:52 17.6 C 7.8 g/m*3 17.6 C 0 km/h
1133 02-06-2009 10:15:51 18 C 7.83 g/m*3 18 C 0 km/h
1134 02-06-2009 10:27:51 18.3 C 7.82 g/m*3 18.3 C 0 km/h
1135 02-06-2009 10:39:52 18.8 C 7.73 g/m*3 18.8 C 0 km/h
1136 02-06-2009 10:51:51 18.8 C 7.57 g/m*3 18.8 C 0 km/h
1137 02-06-2009 11:03:51 19.3 C 7.8 g/m*3 19.3 C 0 km/h
1138 02-06-2009 11:15:52 19.5 C 7.89 g/m*3 19.5 C 0 km/h
1139 02-06-2009 11:27:52 20.6 C 8.23 g/m*3 20.6 C 0 km/h
1140 02-06-2009 11:39:51 20.5 C 8.19 g/m*3 20.5 C 0 km/h
1141 02-06-2009 11:51:51 20.8 C 8.15 g/m*3 20.8 C 0 km/h
1142 02-06-2009 12:03:51 21.8 C 7.87 g/m*3 21.8 C 0 km/h
1143 02-06-2009 12:15:51 22.4 C 7.75 g/m*3 22.4 C 0 km/h
1144 02-06-2009 12:27:51 23.8 C 7.74 g/m*3 23.8 C 0 km/h
1145 02-06-2009 12:39:50 23.2 C 7.28 g/m*3 23.2 C 0 km/h
1146 02-06-2009 12:51:51 23.8 C 7.31 g/m*3 23.8 C 0 km/h
1147 02-06-2009 13:03:50 24.1 C 7 g/m*3 24.1 C 0 km/h
1148 02-06-2009 13:15:50 24.3 C 6.86 g/m*3 24.3 C 0 km/h
1149 02-06-2009 13:27:50 24.4 C 6.45 g/m*3 24.4 C 0 km/h
1150 02-06-2009 13:39:50 24.6 C 5.85 g/m*3 24.6 C 0 km/h
Sensor: Nr:Datum:Temp:Abs-Feuchte:Windchill:Wind:
Aussen-T/F 1151 02-06-2009 13:51:50 24.4 C 5.56 g/m*3 24.4 C 0 km/h
1152 02-06-2009 14:03:50 24.3 C 5.53 g/m*3 24.3 C 0 km/h
1153 02-06-2009 14:15:49 24.6 C 5.85 g/m*3 24.6 C 0 km/h
1154 02-06-2009 14:27:49 24 C 5.87 g/m*3 24 C 0 km/h
1155 02-06-2009 14:39:50 25.2 C 5.82 g/m*3 25.2 C 0 km/h
1156 02-06-2009 14:51:49 24.6 C 5.63 g/m*3 24.6 C 0 km/h
1157 02-06-2009 15:03:49 24.7 C 5.21 g/m*3 24.7 C 0 km/h
1158 02-06-2009 15:15:48 25.4 C 5.41 g/m*3 25.4 C 0 km/h
1159 02-06-2009 15:27:48 25.7 C 5.03 g/m*3 25.7 C 0 km/h
1160 02-06-2009 15:39:49 25.9 C 5.57 g/m*3 25.9 C 0 km/h
1161 02-06-2009 15:51:48 27 C 5.4 g/m*3 27 C 0 km/h
1162 02-06-2009 16:03:48 26.5 C 5.76 g/m*3 26.5 C 0 km/h
1163 02-06-2009 16:15:49 26 C 5.11 g/m*3 26 C 0 km/h
1164 02-06-2009 16:27:49 26.7 C 5.06 g/m*3 26.7 C 0 km/h
1165 02-06-2009 16:39:48 27.1 C 5.18 g/m*3 27.1 C 0 km/h
1166 02-06-2009 16:51:48 27 C 5.15 g/m*3 27 C 0 km/h
1167 02-06-2009 17:03:48 27.8 C 5.38 g/m*3 27.8 C 0 km/h
1168 02-06-2009 17:15:48 27.5 C 5.29 g/m*3 27.5 C 0 km/h
1169 02-06-2009 17:27:49 27.1 C 5.18 g/m*3 27.1 C 0 km/h
1170 02-06-2009 17:39:47 27.8 C 5.38 g/m*3 27.8 C 0 km/h
1171 02-06-2009 17:51:48 27.6 C 5.32 g/m*3 27.6 C 0 km/h
1172 02-06-2009 18:03:48 27.8 C 5.38 g/m*3 27.8 C 0 km/h
1173 02-06-2009 18:15:47 28.1 C 5.47 g/m*3 28.1 C 0 km/h
1174 02-06-2009 18:27:47 28.5 C 5.59 g/m*3 28.5 C 0 km/h
1175 02-06-2009 18:39:47 29.2 C 5.81 g/m*3 29.2 C 0 km/h
Sensor: Nr:Datum:Temp:Abs-Feuchte:Windchill:Wind:
Aussen-T/F 1176 02-06-2009 18:51:47 27.5 C 5.29 g/m*3 27.5 C 0 km/h
1177 02-06-2009 19:03:47 28.6 C 5.62 g/m*3 28.6 C 0 km/h
1178 02-06-2009 19:15:46 28.2 C 5.5 g/m*3 28.2 C 0 km/h
1179 02-06-2009 19:27:46 28.1 C 5.47 g/m*3 28.1 C 0 km/h
1180 02-06-2009 19:39:47 27.4 C 5.26 g/m*3 27.4 C 0 km/h
1181 02-06-2009 19:51:46 27.9 C 5.68 g/m*3 27.9 C 0 km/h
1182 02-06-2009 20:03:46 27.6 C 5.59 g/m*3 27.6 C 0 km/h
1183 02-06-2009 20:15:46 27.3 C 5.49 g/m*3 27.3 C 0 km/h
1184 02-06-2009 20:27:46 26.4 C 5.73 g/m*3 26.4 C 0 km/h
1185 02-06-2009 20:39:46 25.3 C 5.85 g/m*3 25.3 C 0 km/h
1186 02-06-2009 20:51:46 24.2 C 5.72 g/m*3 24.2 C 0 km/h
1187 02-06-2009 21:03:45 23.9 C 5.62 g/m*3 23.9 C 0 km/h
1188 02-06-2009 21:15:46 23.3 C 5.23 g/m*3 23.3 C 0 km/h
1189 02-06-2009 21:27:46 22.7 C 5.46 g/m*3 22.7 C 0 km/h
1190 02-06-2009 21:39:45 22.4 C 5.56 g/m*3 22.4 C 0 km/h
1191 02-06-2009 21:51:13 22.1 C 5.47 g/m*3 22.1 C 0 km/h
1192 02-06-2009 22:03:13 21.7 C 5.72 g/m*3 21.7 C 0 km/h
1193 02-06-2009 22:15:13 21.5 C 5.66 g/m*3 21.5 C 0 km/h
1194 02-06-2009 22:27:13 21.2 C 5.56 g/m*3 21.2 C 0 km/h
1195 02-06-2009 22:39:13 20.9 C 5.83 g/m*3 20.9 C 0 km/h
1196 02-06-2009 22:51:13 20.6 C 5.91 g/m*3 20.6 C 0 km/h
1197 02-06-2009 23:03:13 20.3 C 5.8 g/m*3 20.3 C 0 km/h
1198 02-06-2009 23:15:13 20.2 C 5.77 g/m*3 20.2 C 0 km/h
1199 02-06-2009 23:27:45 19.9 C 5.84 g/m*3 19.9 C 0 km/h
1200 02-06-2009 23:39:45 19.7 C 5.77 g/m*3 19.7 C 0 km/h
Sensor: Nr:Datum:Temp:Abs-Feuchte:Windchill:Wind:
Aussen-T/F 1201 02-06-2009 23:51:45 19.9 C 6.01 g/m*3 19.9 C 0 km/h
1202 03-06-2009 00:03:45 19.7 C 5.77 g/m*3 19.7 C 0 km/h
1203 03-06-2009 00:15:45 19.4 C 5.67 g/m*3 19.4 C 0 km/h
1204 03-06-2009 00:27:45 19 C 5.38 g/m*3 19 C 0 km/h
1205 03-06-2009 00:39:44 18.6 C 5.57 g/m*3 18.6 C 0 km/h
1206 03-06-2009 00:51:45 18.2 C 5.44 g/m*3 18.2 C 0 km/h
1207 03-06-2009 01:03:44 17.9 C 5.5 g/m*3 17.9 C 0 km/h
1208 03-06-2009 01:15:44 17.7 C 5.43 g/m*3 17.7 C 0 km/h
1209 03-06-2009 01:27:44 17.3 C 5.3 g/m*3 17.3 C 0 km/h
1210 03-06-2009 01:39:44 17.1 C 5.24 g/m*3 17.1 C 0 km/h
1211 03-06-2009 01:51:44 16.8 C 5.29 g/m*3 16.8 C 0 km/h
1212 03-06-2009 02:03:44 16.4 C 5.16 g/m*3 16.4 C 0 km/h
1213 03-06-2009 02:15:43 16 C 5.18 g/m*3 16 C 0 km/h
1214 03-06-2009 02:27:43 15.7 C 5.22 g/m*3 15.7 C 0 km/h
1215 03-06-2009 02:39:44 15.4 C 5.65 g/m*3 15.4 C 0 km/h
1216 03-06-2009 02:52:45 15.1 C 5.81 g/m*3 15.1 C 0 km/h
1217 03-06-2009 03:04:45 15 C 5.77 g/m*3 15 C 0 km/h
1218 03-06-2009 03:16:45 14.6 C 5.88 g/m*3 14.6 C 0 km/h
1219 03-06-2009 03:28:45 14.4 C 5.81 g/m*3 14.4 C 0 km/h
1220 03-06-2009 03:40:45 14.2 C 5.74 g/m*3 14.2 C 0 km/h
1221 03-06-2009 03:52:45 13.8 C 5.96 g/m*3 13.8 C 0 km/h
1222 03-06-2009 04:04:45 13.7 C 6.04 g/m*3 13.7 C 0 km/h
1223 03-06-2009 04:16:44 13.6 C 6 g/m*3 13.6 C 0 km/h
1224 03-06-2009 04:28:44 13.5 C 5.97 g/m*3 13.5 C 0 km/h
1225 03-06-2009 04:40:45 13.3 C 6.01 g/m*3 13.3 C 0 km/h
Sensor: Nr:Datum:Temp:Abs-Feuchte:Windchill:Wind:
Aussen-T/F 1226 03-06-2009 04:52:44 13.1 C 5.93 g/m*3 13.1 C 0 km/h
1227 03-06-2009 05:04:44 13 C 5.9 g/m*3 13 C 0 km/h
1228 03-06-2009 05:16:44 13 C 5.9 g/m*3 13 C 0 km/h
1229 03-06-2009 05:28:44 12.8 C 5.94 g/m*3 12.8 C 0 km/h
1230 03-06-2009 05:40:44 12.7 C 6.01 g/m*3 12.7 C 0 km/h
1231 03-06-2009 05:52:44 12.7 C 6.01 g/m*3 12.7 C 0 km/h
1232 03-06-2009 06:04:43 12.9 C 6.2 g/m*3 12.9 C 0 km/h
1233 03-06-2009 06:16:43 13 C 6.24 g/m*3 13 C 0 km/h
1234 03-06-2009 06:28:43 13 C 6.24 g/m*3 13 C 0 km/h
1235 03-06-2009 06:40:43 13 C 6.35 g/m*3 13 C 0 km/h
1236 03-06-2009 06:52:43 12.9 C 6.54 g/m*3 12.9 C 0 km/h
1237 03-06-2009 07:04:42 12.8 C 6.27 g/m*3 12.8 C 0 km/h
1238 03-06-2009 07:16:43 12.7 C 6.35 g/m*3 12.7 C 0 km/h
1239 03-06-2009 07:28:43 12.5 C 6.05 g/m*3 12.5 C 0 km/h
1240 03-06-2009 07:40:43 12.8 C 6.16 g/m*3 12.8 C 0 km/h
1241 03-06-2009 07:52:42 12.9 C 6.2 g/m*3 12.9 C 0 km/h
1242 03-06-2009 08:04:43 12.8 C 5.94 g/m*3 12.8 C 0 km/h
1243 03-06-2009 08:16:42 12.8 C 5.94 g/m*3 12.8 C 0 km/h
1244 03-06-2009 08:28:42 13 C 5.9 g/m*3 13 C 0 km/h
1245 03-06-2009 08:40:42 13 C 5.67 g/m*3 13 C 0 km/h
1246 03-06-2009 08:52:42 13.1 C 5.48 g/m*3 13.1 C 0 km/h
1247 03-06-2009 09:04:42 13.5 C 5.5 g/m*3 13.5 C 0 km/h
1248 03-06-2009 09:16:41 13.9 C 5.39 g/m*3 13.9 C 0 km/h
1249 03-06-2009 09:28:41 13.9 C 5.04 g/m*3 13.9 C 0 km/h
1250 03-06-2009 09:40:41 14.6 C 5.13 g/m*3 14.6 C 0 km/h
Sensor: Nr:Datum:Temp:Abs-Feuchte:Windchill:Wind:
Aussen-T/F 1251 03-06-2009 09:52:41 14.7 C 5.67 g/m*3 14.7 C 0 km/h
1252 03-06-2009 10:04:41 14.2 C 5.62 g/m*3 14.2 C 0 km/h
1253 03-06-2009 10:16:41 14.9 C 5.23 g/m*3 14.9 C 0 km/h
1254 03-06-2009 10:28:41 14.6 C 5.63 g/m*3 14.6 C 0 km/h
1255 03-06-2009 10:40:41 15 C 5.39 g/m*3 15 C 0 km/h
1256 03-06-2009 10:52:41 15.4 C 5.26 g/m*3 15.4 C 0 km/h
1257 03-06-2009 11:04:40 14.9 C 5.23 g/m*3 14.9 C 0 km/h
1258 03-06-2009 11:16:41 15.2 C 5.19 g/m*3 15.2 C 0 km/h
1259 03-06-2009 11:28:41 16 C 5.31 g/m*3 16 C 0 km/h
1260 03-06-2009 11:40:40 16.8 C 5.43 g/m*3 16.8 C 0 km/h
1261 03-06-2009 11:52:40 17 C 5.21 g/m*3 17 C 0 km/h
1262 03-06-2009 12:04:40 16.7 C 4.97 g/m*3 16.7 C 0 km/h
1263 03-06-2009 12:16:40 16.8 C 4.86 g/m*3 16.8 C 0 km/h
1264 03-06-2009 12:28:40 17.7 C 4.98 g/m*3 17.7 C 0 km/h
1265 03-06-2009 12:40:39 17.9 C 4.73 g/m*3 17.9 C 0 km/h
1266 03-06-2009 12:52:40 18.8 C 4.83 g/m*3 18.8 C 0 km/h
1267 03-06-2009 13:04:40 17.3 C 4.42 g/m*3 17.3 C 0 km/h
1268 03-06-2009 13:16:39 18.2 C 4.66 g/m*3 18.2 C 0 km/h
1269 03-06-2009 13:28:39 19.5 C 4.53 g/m*3 19.5 C 0 km/h
1270 03-06-2009 13:40:39 18.4 C 4.09 g/m*3 18.4 C 0 km/h
1271 03-06-2009 13:52:39 19.8 C 4.27 g/m*3 19.8 C 0 km/h
1272 03-06-2009 14:04:39 19.3 C 4.15 g/m*3 19.3 C 0 km/h
1273 03-06-2009 14:16:38 20.1 C 4.35 g/m*3 20.1 C 0 km/h
1274 03-06-2009 14:28:38 19.3 C 4.31 g/m*3 19.3 C 0 km/h
1275 03-06-2009 14:40:39 19.1 C 4.43 g/m*3 19.1 C 0 km/h
Sensor: Nr:Datum:Temp:Abs-Feuchte:Windchill:Wind:
Aussen-T/F 1276 03-06-2009 14:52:38 19.7 C 4.92 g/m*3 19.7 C 0 km/h
1277 03-06-2009 15:04:38 20.5 C 4.45 g/m*3 20.5 C 0 km/h
1278 03-06-2009 15:16:39 20 C 4.67 g/m*3 20 C 0 km/h
1279 03-06-2009 15:28:39 20.8 C 4.53 g/m*3 20.8 C 0 km/h
1280 03-06-2009 15:40:38 20.4 C 4.6 g/m*3 20.4 C 0 km/h
1281 03-06-2009 15:52:37 20.9 C 4.55 g/m*3 20.9 C 0 km/h
1282 03-06-2009 16:04:38 20.1 C 4.52 g/m*3 20.1 C 0 km/h
1283 03-06-2009 16:16:38 20.4 C 4.42 g/m*3 20.4 C 0 km/h
1284 03-06-2009 16:28:38 20.2 C 4.55 g/m*3 20.2 C 0 km/h
1285 03-06-2009 16:40:37 20.3 C 4.75 g/m*3 20.3 C 0 km/h
1286 03-06-2009 16:52:38 20 C 4.32 g/m*3 20 C 0 km/h
1287 03-06-2009 17:04:37 20.3 C 4.57 g/m*3 20.3 C 0 km/h
1288 03-06-2009 17:16:37 20.6 C 4.65 g/m*3 20.6 C 0 km/h
1289 03-06-2009 17:28:37 20.7 C 4.32 g/m*3 20.7 C 0 km/h
1290 03-06-2009 17:40:36 19.4 C 4.34 g/m*3 19.4 C 0 km/h
1291 03-06-2009 17:52:37 20.6 C 4.12 g/m*3 20.6 C 0 km/h
1292 03-06-2009 18:04:36 19.2 C 3.79 g/m*3 19.2 C 0 km/h
1293 03-06-2009 18:16:36 20.3 C 4.05 g/m*3 20.3 C 0 km/h
1294 03-06-2009 18:28:36 19.3 C 3.98 g/m*3 19.3 C 0 km/h
1295 03-06-2009 18:40:37 20 C 4.32 g/m*3 20 C 0 km/h
1296 03-06-2009 18:52:36 19 C 4.24 g/m*3 19 C 0 km/h
1297 03-06-2009 19:04:36 19.1 C 4.26 g/m*3 19.1 C 0 km/h
1298 03-06-2009 19:16:36 18.8 C 4.51 g/m*3 18.8 C 0 km/h
1299 03-06-2009 19:28:36 18.1 C 4.64 g/m*3 18.1 C 0 km/h
1300 03-06-2009 19:40:36 18 C 4.61 g/m*3 18 C 0 km/h
Sensor: Nr:Datum:Temp:Abs-Feuchte:Windchill:Wind:
Aussen-T/F 1301 03-06-2009 19:52:36 18 C 4.76 g/m*3 18 C 0 km/h
1302 03-06-2009 20:04:36 17.7 C 4.83 g/m*3 17.7 C 0 km/h
1303 03-06-2009 20:16:36 16.9 C 5.03 g/m*3 16.9 C 0 km/h
1304 03-06-2009 20:28:36 16.6 C 5.09 g/m*3 16.6 C 0 km/h
1305 03-06-2009 20:40:35 16.4 C 5.02 g/m*3 16.4 C 0 km/h
1306 03-06-2009 20:52:34 16.5 C 4.91 g/m*3 16.5 C 0 km/h
1307 03-06-2009 21:04:35 16.1 C 4.8 g/m*3 16.1 C 0 km/h
1308 03-06-2009 21:16:35 16 C 4.77 g/m*3 16 C 0 km/h
1309 03-06-2009 21:28:35 15.9 C 4.88 g/m*3 15.9 C 0 km/h
1310 03-06-2009 21:40:34 15.5 C 4.63 g/m*3 15.5 C 0 km/h
1311 03-06-2009 21:52:35 15.4 C 4.73 g/m*3 15.4 C 0 km/h
1312 03-06-2009 22:05:35 15.3 C 4.7 g/m*3 15.3 C 0 km/h
1313 03-06-2009 22:17:35 15.2 C 4.67 g/m*3 15.2 C 0 km/h
1314 03-06-2009 22:29:35 15 C 4.62 g/m*3 15 C 0 km/h
1315 03-06-2009 22:41:35 14.7 C 4.78 g/m*3 14.7 C 0 km/h
1316 03-06-2009 22:53:35 14.9 C 4.84 g/m*3 14.9 C 0 km/h
1317 03-06-2009 23:05:35 14.8 C 4.69 g/m*3 14.8 C 0 km/h
1318 03-06-2009 23:17:35 14.6 C 4.88 g/m*3 14.6 C 0 km/h
1319 03-06-2009 23:29:36 14.5 C 4.97 g/m*3 14.5 C 0 km/h
1320 03-06-2009 23:41:36 14.2 C 5.01 g/m*3 14.2 C 0 km/h
1321 03-06-2009 23:53:36 14 C 5.07 g/m*3 14 C 0 km/h
1322 04-06-2009 00:05:36 13.7 C 5.21 g/m*3 13.7 C 0 km/h
1323 04-06-2009 00:17:36 13.7 C 5.33 g/m*3 13.7 C 0 km/h
1324 04-06-2009 00:29:36 13.4 C 5.23 g/m*3 13.4 C 0 km/h
1325 04-06-2009 00:41:36 13.1 C 5.14 g/m*3 13.1 C 0 km/h
Sensor: Nr:Datum:Temp:Abs-Feuchte:Windchill:Wind:
Aussen-T/F 1326 04-06-2009 00:53:36 13 C 5.22 g/m*3 13 C 0 km/h
1327 04-06-2009 01:05:36 12.7 C 5.34 g/m*3 12.7 C 0 km/h
1328 04-06-2009 01:17:36 12.6 C 5.42 g/m*3 12.6 C 0 km/h
1329 04-06-2009 01:29:36 12.7 C 5.45 g/m*3 12.7 C 0 km/h
1330 04-06-2009 01:41:36 12.6 C 5.42 g/m*3 12.6 C 0 km/h
1331 04-06-2009 01:53:36 12.5 C 5.5 g/m*3 12.5 C 0 km/h
1332 04-06-2009 02:05:36 12.5 C 4.95 g/m*3 12.5 C 0 km/h
1333 04-06-2009 02:17:36 12.4 C 4.7 g/m*3 12.4 C 0 km/h
1334 04-06-2009 02:29:36 12 C 4.48 g/m*3 12 C 0 km/h
1335 04-06-2009 02:41:36 11.9 C 4.45 g/m*3 11.9 C 0 km/h
1336 04-06-2009 02:53:36 11.7 C 4.18 g/m*3 11.7 C 0 km/h
1337 04-06-2009 03:05:36 11.5 C 4.13 g/m*3 11.5 C 0 km/h
1338 04-06-2009 03:17:37 11.2 C 3.95 g/m*3 11.2 C 0 km/h
1339 04-06-2009 03:29:37 11 C 4 g/m*3 11 C 0 km/h
1340 04-06-2009 03:41:37 10.8 C 4.15 g/m*3 10.8 C 0 km/h
1341 04-06-2009 03:53:37 10.9 C 4.28 g/m*3 10.9 C 0 km/h
1342 04-06-2009 04:05:37 10.8 C 4.15 g/m*3 10.8 C 0 km/h
1343 04-06-2009 04:17:37 10.7 C 4.22 g/m*3 10.7 C 0 km/h
1344 04-06-2009 04:29:37 10.6 C 4.29 g/m*3 10.6 C 0 km/h
1345 04-06-2009 04:41:37 10.6 C 4.39 g/m*3 10.6 C 0 km/h
1346 04-06-2009 04:53:37 10.7 C 4.62 g/m*3 10.7 C 0 km/h
1347 04-06-2009 05:05:37 10.5 C 4.85 g/m*3 10.5 C 0 km/h
1348 04-06-2009 05:17:37 10.5 C 4.95 g/m*3 10.5 C 0 km/h
1349 04-06-2009 05:29:37 10.6 C 5.08 g/m*3 10.6 C 0 km/h
1350 04-06-2009 05:41:37 10.7 C 5.11 g/m*3 10.7 C 0 km/h
Sensor: Nr:Datum:Temp:Abs-Feuchte:Windchill:Wind:
Aussen-T/F 1351 04-06-2009 05:53:37 10.7 C 5.01 g/m*3 10.7 C 0 km/h
1352 04-06-2009 06:05:37 10.7 C 5.11 g/m*3 10.7 C 0 km/h
1353 04-06-2009 06:17:37 10.7 C 5.01 g/m*3 10.7 C 0 km/h
1354 04-06-2009 06:29:37 10.5 C 4.75 g/m*3 10.5 C 0 km/h
1355 04-06-2009 06:41:37 10.6 C 4.78 g/m*3 10.6 C 0 km/h
1356 04-06-2009 06:53:35 10.7 C 4.91 g/m*3 10.7 C 0 km/h
1357 04-06-2009 07:05:35 10.7 C 4.91 g/m*3 10.7 C 0 km/h
1358 04-06-2009 07:17:35 11 C 4.8 g/m*3 11 C 0 km/h
1359 04-06-2009 07:29:35 10.8 C 5.04 g/m*3 10.8 C 0 km/h
1360 04-06-2009 07:41:35 10.8 C 5.34 g/m*3 10.8 C 0 km/h
1361 04-06-2009 07:53:35 11 C 5.31 g/m*3 11 C 0 km/h
1362 04-06-2009 08:05:34 11.6 C 5.4 g/m*3 11.6 C 0 km/h
1363 04-06-2009 08:17:34 11.8 C 5.37 g/m*3 11.8 C 0 km/h
1364 04-06-2009 08:29:34 11.9 C 5.3 g/m*3 11.9 C 0 km/h
1365 04-06-2009 08:41:34 12.2 C 5.18 g/m*3 12.2 C 0 km/h
1366 04-06-2009 08:53:34 12.5 C 5.17 g/m*3 12.5 C 0 km/h
1367 04-06-2009 09:05:33 13 C 4.88 g/m*3 13 C 0 km/h
1368 04-06-2009 09:17:34 12.8 C 4.59 g/m*3 12.8 C 0 km/h
1369 04-06-2009 09:29:34 12.3 C 4.13 g/m*3 12.3 C 0 km/h
1370 04-06-2009 09:41:34 12.7 C 4.23 g/m*3 12.7 C 0 km/h
1371 04-06-2009 09:53:33 12.9 C 4.51 g/m*3 12.9 C 0 km/h
1372 04-06-2009 10:05:34 13 C 4.2 g/m*3 13 C 0 km/h
1373 04-06-2009 10:17:33 13.1 C 4.45 g/m*3 13.1 C 0 km/h
1374 04-06-2009 10:29:33 14.1 C 4.49 g/m*3 14.1 C 0 km/h
1375 04-06-2009 10:41:33 13.5 C 4.33 g/m*3 13.5 C 0 km/h
Sensor: Nr:Datum:Temp:Abs-Feuchte:Windchill:Wind:
Aussen-T/F 1376 04-06-2009 10:53:33 13.2 C 4.36 g/m*3 13.2 C 0 km/h
1377 04-06-2009 11:05:33 14 C 4.46 g/m*3 14 C 0 km/h
1378 04-06-2009 11:17:32 14.7 C 4.53 g/m*3 14.7 C 0 km/h
1379 04-06-2009 11:29:32 13.3 C 4.04 g/m*3 13.3 C 0 km/h
1380 04-06-2009 11:41:32 13.1 C 3.99 g/m*3 13.1 C 0 km/h
1381 04-06-2009 11:53:32 13.5 C 4.33 g/m*3 13.5 C 0 km/h
1382 04-06-2009 12:05:32 14.7 C 4.53 g/m*3 14.7 C 0 km/h
1383 04-06-2009 12:17:32 14.5 C 4.35 g/m*3 14.5 C 0 km/h
1384 04-06-2009 12:29:32 14.6 C 4.25 g/m*3 14.6 C 0 km/h
1385 04-06-2009 12:41:32 14.4 C 3.96 g/m*3 14.4 C 0 km/h
1386 04-06-2009 12:53:32 14.7 C 4.28 g/m*3 14.7 C 0 km/h
1387 04-06-2009 13:05:31 14.7 C 4.41 g/m*3 14.7 C 0 km/h
1388 04-06-2009 13:17:32 15.7 C 4.01 g/m*3 15.7 C 0 km/h
1389 04-06-2009 13:29:32 15.6 C 3.72 g/m*3 15.6 C 0 km/h
1390 04-06-2009 13:41:31 14.9 C 3.95 g/m*3 14.9 C 0 km/h
1391 04-06-2009 13:53:31 14.4 C 3.96 g/m*3 14.4 C 0 km/h
1392 04-06-2009 14:05:31 15.1 C 4.13 g/m*3 15.1 C 0 km/h
1393 04-06-2009 14:17:31 16.2 C 4.14 g/m*3 16.2 C 0 km/h
1394 04-06-2009 14:29:31 15.3 C 3.79 g/m*3 15.3 C 0 km/h
1395 04-06-2009 14:41:31 14.8 C 3.67 g/m*3 14.8 C 0 km/h
1396 04-06-2009 14:53:30 15.8 C 3.9 g/m*3 15.8 C 0 km/h
1397 04-06-2009 15:05:30 16.3 C 4.16 g/m*3 16.3 C 0 km/h
1398 04-06-2009 15:17:30 17.5 C 3.88 g/m*3 17.5 C 0 km/h
1399 04-06-2009 15:29:30 16.1 C 3.56 g/m*3 16.1 C 0 km/h
1400 04-06-2009 15:41:30 15.9 C 3.79 g/m*3 15.9 C 0 km/h
Sensor: Nr:Datum:Temp:Abs-Feuchte:Windchill:Wind:
Aussen-T/F 1401 04-06-2009 15:53:30 16.4 C 3.77 g/m*3 16.4 C 0 km/h
1402 04-06-2009 16:05:30 16.3 C 3.75 g/m*3 16.3 C 0 km/h
1403 04-06-2009 16:17:30 16.2 C 3.59 g/m*3 16.2 C 0 km/h
1404 04-06-2009 16:29:30 17.2 C 3.66 g/m*3 17.2 C 0 km/h
1405 04-06-2009 16:41:30 16.5 C 3.51 g/m*3 16.5 C 0 km/h
1406 04-06-2009 16:53:29 16.2 C 3.72 g/m*3 16.2 C 0 km/h
1407 04-06-2009 17:05:29 16.1 C 3.84 g/m*3 16.1 C 0 km/h
1408 04-06-2009 17:17:29 16.4 C 3.91 g/m*3 16.4 C 0 km/h
1409 04-06-2009 17:29:29 15.6 C 3.86 g/m*3 15.6 C 0 km/h
1410 04-06-2009 17:41:29 15.6 C 3.99 g/m*3 15.6 C 0 km/h
1411 04-06-2009 17:53:28 16.2 C 4.14 g/m*3 16.2 C 0 km/h
1412 04-06-2009 18:05:29 16 C 4.09 g/m*3 16 C 0 km/h
1413 04-06-2009 18:17:29 15.8 C 4.17 g/m*3 15.8 C 0 km/h
1414 04-06-2009 18:29:29 16.1 C 4.25 g/m*3 16.1 C 0 km/h
1415 04-06-2009 18:41:29 15.4 C 4.07 g/m*3 15.4 C 0 km/h
1416 04-06-2009 18:53:28 15.7 C 4.28 g/m*3 15.7 C 0 km/h
1417 04-06-2009 19:05:28 15.3 C 4.18 g/m*3 15.3 C 0 km/h
1418 04-06-2009 19:17:28 15.4 C 4.2 g/m*3 15.4 C 0 km/h
1419 04-06-2009 19:29:28 15.4 C 4.34 g/m*3 15.4 C 0 km/h
1420 04-06-2009 19:41:28 14.7 C 4.41 g/m*3 14.7 C 0 km/h
1421 04-06-2009 19:53:28 15.1 C 4.52 g/m*3 15.1 C 0 km/h
1422 04-06-2009 20:05:28 14.9 C 4.59 g/m*3 14.9 C 0 km/h
1423 04-06-2009 20:17:27 14.9 C 4.59 g/m*3 14.9 C 0 km/h
1424 04-06-2009 20:29:27 14.7 C 4.66 g/m*3 14.7 C 0 km/h
1425 04-06-2009 20:41:27 14.5 C 4.73 g/m*3 14.5 C 0 km/h
Sensor: Nr:Datum:Temp:Abs-Feuchte:Windchill:Wind:
Aussen-T/F 1426 04-06-2009 20:53:27 14.1 C 4.61 g/m*3 14.1 C 0 km/h
1427 04-06-2009 21:05:27 14 C 4.7 g/m*3 14 C 0 km/h
1428 04-06-2009 21:17:27 13.8 C 4.77 g/m*3 13.8 C 0 km/h
1429 04-06-2009 21:29:27 13.7 C 4.86 g/m*3 13.7 C 0 km/h
1430 04-06-2009 21:41:27 13.5 C 4.91 g/m*3 13.5 C 0 km/h
1431 04-06-2009 21:53:27 13.5 C 5.03 g/m*3 13.5 C 0 km/h
1432 04-06-2009 22:06:22 13.3 C 4.97 g/m*3 13.3 C 0 km/h
1433 04-06-2009 22:18:22 13.2 C 4.94 g/m*3 13.2 C 0 km/h
1434 04-06-2009 22:30:22 13 C 4.99 g/m*3 13 C 0 km/h
1435 04-06-2009 22:42:22 13 C 4.88 g/m*3 13 C 0 km/h
1436 04-06-2009 22:54:22 12.9 C 4.96 g/m*3 12.9 C 0 km/h
1437 04-06-2009 23:06:22 12.7 C 5.01 g/m*3 12.7 C 0 km/h
1438 04-06-2009 23:18:22 12.4 C 4.92 g/m*3 12.4 C 0 km/h
1439 04-06-2009 23:30:22 12.2 C 4.86 g/m*3 12.2 C 0 km/h
1440 04-06-2009 23:42:22 12.1 C 4.93 g/m*3 12.1 C 0 km/h
1441 04-06-2009 23:54:22 12 C 5.01 g/m*3 12 C 0 km/h
1442 05-06-2009 00:06:22 11.7 C 5.12 g/m*3 11.7 C 0 km/h
1443 05-06-2009 00:18:22 11.7 C 5.12 g/m*3 11.7 C 0 km/h
1444 05-06-2009 00:30:22 11.6 C 5.09 g/m*3 11.6 C 0 km/h
1445 05-06-2009 00:42:22 11.4 C 4.82 g/m*3 11.4 C 0 km/h
1446 05-06-2009 00:54:22 11.2 C 4.76 g/m*3 11.2 C 0 km/h
1447 05-06-2009 01:06:22 11.2 C 4.66 g/m*3 11.2 C 0 km/h
1448 05-06-2009 01:18:22 11.1 C 4.63 g/m*3 11.1 C 0 km/h
1449 05-06-2009 01:30:22 11 C 4.6 g/m*3 11 C 0 km/h
1450 05-06-2009 01:42:22 10.9 C 4.67 g/m*3 10.9 C 0 km/h
Sensor: Nr:Datum:Temp:Abs-Feuchte:Windchill:Wind:
Aussen-T/F 1451 05-06-2009 01:54:23 10.8 C 4.65 g/m*3 10.8 C 0 km/h
1452 05-06-2009 02:06:23 10.7 C 4.71 g/m*3 10.7 C 0 km/h
1453 05-06-2009 02:18:23 10.4 C 4.72 g/m*3 10.4 C 0 km/h
1454 05-06-2009 02:30:23 10 C 4.7 g/m*3 10 C 0 km/h
1455 05-06-2009 02:42:23 9.6 C 4.76 g/m*3 9.6 C 0 km/h
1456 05-06-2009 02:54:23 9.2 C 4.91 g/m*3 9.2 C 0 km/h
1457 05-06-2009 03:06:23 9.2 C 5 g/m*3 9.2 C 0 km/h
1458 05-06-2009 03:18:23 9.3 C 5.03 g/m*3 9.3 C 0 km/h
1459 05-06-2009 03:30:23 9.2 C 5 g/m*3 9.2 C 0 km/h
1460 05-06-2009 03:42:23 9 C 5.11 g/m*3 9 C 0 km/h
1461 05-06-2009 03:54:23 8.6 C 5.16 g/m*3 8.6 C 0 km/h
1462 05-06-2009 04:06:23 8.6 C 5.16 g/m*3 8.6 C 0 km/h
1463 05-06-2009 04:18:23 8.6 C 5.24 g/m*3 8.6 C 0 km/h
1464 05-06-2009 04:30:23 8.5 C 5.21 g/m*3 8.5 C 0 km/h
1465 05-06-2009 04:42:23 8.5 C 5.29 g/m*3 8.5 C 0 km/h
1466 05-06-2009 04:54:23 8.5 C 5.38 g/m*3 8.5 C 0 km/h
1467 05-06-2009 05:06:23 8.4 C 5.34 g/m*3 8.4 C 0 km/h
1468 05-06-2009 05:18:23 8.1 C 5.33 g/m*3 8.1 C 0 km/h
1469 05-06-2009 05:30:23 8.2 C 5.44 g/m*3 8.2 C 0 km/h
1470 05-06-2009 05:42:23 8.4 C 5.6 g/m*3 8.4 C 0 km/h
1471 05-06-2009 05:54:24 8.5 C 5.64 g/m*3 8.5 C 0 km/h
1472 05-06-2009 06:06:24 8.5 C 5.72 g/m*3 8.5 C 0 km/h
1473 05-06-2009 06:18:24 8.5 C 5.64 g/m*3 8.5 C 0 km/h
1474 05-06-2009 06:30:24 8.5 C 5.72 g/m*3 8.5 C 0 km/h
1475 05-06-2009 06:42:24 8.5 C 5.72 g/m*3 8.5 C 0 km/h
Sensor: Nr:Datum:Temp:Abs-Feuchte:Windchill:Wind:
Aussen-T/F 1476 05-06-2009 06:54:24 8.7 C 5.79 g/m*3 8.7 C 0 km/h
1477 05-06-2009 07:06:28 8.8 C 5.83 g/m*3 8.8 C 0 km/h
1478 05-06-2009 07:18:27 8.9 C 5.78 g/m*3 8.9 C 0 km/h
1479 05-06-2009 07:30:28 9.2 C 5.63 g/m*3 9.2 C 0 km/h
1480 05-06-2009 07:42:28 10 C 5.64 g/m*3 10 C 0 km/h
1481 05-06-2009 07:54:27 10.2 C 5.52 g/m*3 10.2 C 0 km/h
1482 05-06-2009 08:06:27 10.5 C 5.63 g/m*3 10.5 C 0 km/h
1483 05-06-2009 08:18:27 10.8 C 5.63 g/m*3 10.8 C 0 km/h
1484 05-06-2009 08:30:27 10.6 C 5.56 g/m*3 10.6 C 0 km/h
1485 05-06-2009 08:42:27 10.2 C 5.61 g/m*3 10.2 C 0 km/h
1486 05-06-2009 08:54:26 10.4 C 5.78 g/m*3 10.4 C 0 km/h
1487 05-06-2009 09:06:27 11.5 C 5.78 g/m*3 11.5 C 0 km/h
1488 05-06-2009 09:18:26 12.3 C 5.43 g/m*3 12.3 C 0 km/h
1489 05-06-2009 09:30:26 12.7 C 5.12 g/m*3 12.7 C 0 km/h
1490 05-06-2009 09:42:26 11.8 C 4.95 g/m*3 11.8 C 0 km/h
1491 05-06-2009 09:54:26 12.1 C 5.25 g/m*3 12.1 C 0 km/h
1492 05-06-2009 10:06:26 12.7 C 5.12 g/m*3 12.7 C 0 km/h
1493 05-06-2009 10:18:25 13.1 C 5.02 g/m*3 13.1 C 0 km/h
1494 05-06-2009 10:30:26 12.3 C 4.67 g/m*3 12.3 C 0 km/h
1495 05-06-2009 10:42:26 13.3 C 4.97 g/m*3 13.3 C 0 km/h
1496 05-06-2009 10:54:26 12.6 C 4.54 g/m*3 12.6 C 0 km/h
1497 05-06-2009 11:06:25 12.3 C 4.56 g/m*3 12.3 C 0 km/h
1498 05-06-2009 11:18:26 13 C 4.76 g/m*3 13 C 0 km/h
1499 05-06-2009 11:30:25 13.4 C 4.65 g/m*3 13.4 C 0 km/h
1500 05-06-2009 11:42:25 14 C 4.34 g/m*3 14 C 0 km/h
Sensor: Nr:Datum:Temp:Abs-Feuchte:Windchill:Wind:
Aussen-T/F 1501 05-06-2009 11:54:25 14.3 C 4.18 g/m*3 14.3 C 0 km/h
1502 05-06-2009 12:06:24 14.6 C 4.38 g/m*3 14.6 C 0 km/h
1503 05-06-2009 12:18:25 15.3 C 4.44 g/m*3 15.3 C 0 km/h
1504 05-06-2009 12:30:25 15.6 C 4.26 g/m*3 15.6 C 0 km/h
1505 05-06-2009 12:42:25 16.1 C 4.25 g/m*3 16.1 C 0 km/h
1506 05-06-2009 12:54:24 16.6 C 4.38 g/m*3 16.6 C 0 km/h
1507 05-06-2009 13:06:25 18.5 C 4.43 g/m*3 18.5 C 0 km/h
1508 05-06-2009 13:18:24 17.7 C 4.22 g/m*3 17.7 C 0 km/h
1509 05-06-2009 13:30:24 17.2 C 4.25 g/m*3 17.2 C 0 km/h
1510 05-06-2009 13:42:25 16.6 C 4.1 g/m*3 16.6 C 0 km/h
1511 05-06-2009 13:54:24 16.2 C 4 g/m*3 16.2 C 0 km/h
1512 05-06-2009 14:06:24 16.5 C 4.07 g/m*3 16.5 C 0 km/h
1513 05-06-2009 14:18:23 16.8 C 4.15 g/m*3 16.8 C 0 km/h
1514 05-06-2009 14:30:23 16.6 C 3.96 g/m*3 16.6 C 0 km/h
1515 05-06-2009 14:42:23 16.2 C 3.86 g/m*3 16.2 C 0 km/h
1516 05-06-2009 14:54:23 16.4 C 4.19 g/m*3 16.4 C 0 km/h
1517 05-06-2009 15:06:23 16.8 C 4.15 g/m*3 16.8 C 0 km/h
1518 05-06-2009 15:18:23 16.4 C 3.77 g/m*3 16.4 C 0 km/h
1519 05-06-2009 15:30:23 16 C 3.95 g/m*3 16 C 0 km/h
1520 05-06-2009 15:42:23 15.9 C 3.93 g/m*3 15.9 C 0 km/h
1521 05-06-2009 15:54:23 15.6 C 3.72 g/m*3 15.6 C 0 km/h
1522 05-06-2009 16:06:22 16.8 C 3.86 g/m*3 16.8 C 0 km/h
1523 05-06-2009 16:18:22 17.6 C 4.05 g/m*3 17.6 C 0 km/h
1524 05-06-2009 16:30:23 18.4 C 4.09 g/m*3 18.4 C 0 km/h
1525 05-06-2009 16:42:23 18.9 C 4.05 g/m*3 18.9 C 0 km/h
Sensor: Nr:Datum:Temp:Abs-Feuchte:Windchill:Wind:
Aussen-T/F 1526 05-06-2009 16:54:22 20.1 C 4 g/m*3 20.1 C 0 km/h
1527 05-06-2009 17:06:21 20 C 3.46 g/m*3 20 C 0 km/h
1528 05-06-2009 17:18:22 18.4 C 3.3 g/m*3 18.4 C 0 km/h
1529 05-06-2009 17:30:22 20.4 C 3.71 g/m*3 20.4 C 0 km/h
1530 05-06-2009 17:42:22 20.7 C 3.6 g/m*3 20.7 C 0 km/h
1531 05-06-2009 17:54:21 22 C 3.88 g/m*3 22 C 0 km/h
1532 05-06-2009 18:06:22 22.9 C 4.09 g/m*3 22.9 C 0 km/h
1533 05-06-2009 18:18:21 22.9 C 4.09 g/m*3 22.9 C 0 km/h
1534 05-06-2009 18:30:21 22.1 C 3.9 g/m*3 22.1 C 0 km/h
1535 05-06-2009 18:42:21 21 C 3.66 g/m*3 21 C 0 km/h
1536 05-06-2009 18:54:21 20.7 C 3.6 g/m*3 20.7 C 0 km/h
1537 05-06-2009 19:06:21 21 C 3.66 g/m*3 21 C 0 km/h
1538 05-06-2009 19:18:20 20.2 C 3.5 g/m*3 20.2 C 0 km/h
1539 05-06-2009 19:30:20 18.5 C 3.48 g/m*3 18.5 C 0 km/h
1540 05-06-2009 19:42:20 17.7 C 3.92 g/m*3 17.7 C 0 km/h
1541 05-06-2009 19:54:20 17.9 C 3.97 g/m*3 17.9 C 0 km/h
1542 05-06-2009 20:06:20 17.7 C 4.07 g/m*3 17.7 C 0 km/h
1543 05-06-2009 20:18:20 17.2 C 4.25 g/m*3 17.2 C 0 km/h
1544 05-06-2009 20:30:20 16.9 C 4.6 g/m*3 16.9 C 0 km/h
1545 05-06-2009 20:42:20 16 C 4.63 g/m*3 16 C 0 km/h
1546 05-06-2009 20:54:20 15 C 4.62 g/m*3 15 C 0 km/h
1547 05-06-2009 21:06:20 14.2 C 4.76 g/m*3 14.2 C 0 km/h
1548 05-06-2009 21:18:20 13.4 C 4.77 g/m*3 13.4 C 0 km/h
1549 05-06-2009 21:30:19 13 C 4.65 g/m*3 13 C 0 km/h
1550 05-06-2009 21:42:19 12.7 C 4.9 g/m*3 12.7 C 0 km/h
Sensor: Nr:Datum:Temp:Abs-Feuchte:Windchill:Wind:
Aussen-T/F 1551 05-06-2009 21:54:20 12.2 C 4.86 g/m*3 12.2 C 0 km/h
1552 05-06-2009 22:06:19 11.9 C 4.87 g/m*3 11.9 C 0 km/h
1553 05-06-2009 22:18:19 11.8 C 5.05 g/m*3 11.8 C 0 km/h
1554 05-06-2009 22:31:19 11.4 C 5.03 g/m*3 11.4 C 0 km/h
1555 05-06-2009 22:43:19 11.1 C 5.04 g/m*3 11.1 C 0 km/h
1556 05-06-2009 22:55:19 11 C 5.1 g/m*3 11 C 0 km/h
1557 05-06-2009 23:07:19 10.8 C 5.14 g/m*3 10.8 C 0 km/h
1558 05-06-2009 23:19:19 10.5 C 5.14 g/m*3 10.5 C 0 km/h
1559 05-06-2009 23:31:19 10.4 C 5.2 g/m*3 10.4 C 0 km/h
1560 05-06-2009 23:43:19 10.1 C 5.2 g/m*3 10.1 C 0 km/h
1561 05-06-2009 23:55:20 10 C 5.17 g/m*3 10 C 0 km/h
1562 06-06-2009 00:07:20 9.8 C 5.29 g/m*3 9.8 C 0 km/h
1563 06-06-2009 00:19:20 9.7 C 5.35 g/m*3 9.7 C 0 km/h
1564 06-06-2009 00:31:20 9.5 C 5.37 g/m*3 9.5 C 0 km/h
1565 06-06-2009 00:43:20 9.1 C 5.32 g/m*3 9.1 C 0 km/h
1566 06-06-2009 00:55:20 8.9 C 5.43 g/m*3 8.9 C 0 km/h
1567 06-06-2009 01:07:20 8.8 C 5.4 g/m*3 8.8 C 0 km/h
1568 06-06-2009 01:19:20 8.6 C 5.33 g/m*3 8.6 C 0 km/h
1569 06-06-2009 01:31:20 8.6 C 5.41 g/m*3 8.6 C 0 km/h
1570 06-06-2009 01:43:20 8.5 C 5.55 g/m*3 8.5 C 0 km/h
1571 06-06-2009 01:55:20 8.3 C 5.48 g/m*3 8.3 C 0 km/h
1572 06-06-2009 02:07:20 8.2 C 5.53 g/m*3 8.2 C 0 km/h
1573 06-06-2009 02:19:20 8.1 C 5.49 g/m*3 8.1 C 0 km/h
1574 06-06-2009 02:31:20 8.1 C 5.57 g/m*3 8.1 C 0 km/h
1575 06-06-2009 02:43:20 8.1 C 5.66 g/m*3 8.1 C 0 km/h
Sensor: Nr:Datum:Temp:Abs-Feuchte:Windchill:Wind:
Aussen-T/F 1576 06-06-2009 02:55:20 8.1 C 5.66 g/m*3 8.1 C 0 km/h
1577 06-06-2009 03:07:20 8 C 5.79 g/m*3 8 C 0 km/h
1578 06-06-2009 03:19:20 7.8 C 5.79 g/m*3 7.8 C 0 km/h
1579 06-06-2009 03:31:20 7.6 C 5.8 g/m*3 7.6 C 0 km/h
1580 06-06-2009 03:43:20 7.5 C 5.84 g/m*3 7.5 C 0 km/h
1581 06-06-2009 03:55:20 7.4 C 5.81 g/m*3 7.4 C 0 km/h
1582 06-06-2009 04:07:21 7.4 C 5.81 g/m*3 7.4 C 0 km/h
1583 06-06-2009 04:19:21 7.4 C 5.81 g/m*3 7.4 C 0 km/h
1584 06-06-2009 04:31:21 7.3 C 5.85 g/m*3 7.3 C 0 km/h
1585 06-06-2009 04:43:21 7.1 C 5.77 g/m*3 7.1 C 0 km/h
1586 06-06-2009 04:55:21 7.2 C 5.89 g/m*3 7.2 C 0 km/h
1587 06-06-2009 05:07:21 7.4 C 5.96 g/m*3 7.4 C 0 km/h
1588 06-06-2009 05:19:21 7.6 C 6.04 g/m*3 7.6 C 0 km/h
1589 06-06-2009 05:31:21 7.8 C 6.04 g/m*3 7.8 C 0 km/h
1590 06-06-2009 05:43:21 8 C 6.04 g/m*3 8 C 0 km/h
1591 06-06-2009 05:55:21 8.1 C 6.07 g/m*3 8.1 C 0 km/h
1592 06-06-2009 06:07:21 8.2 C 6.11 g/m*3 8.2 C 0 km/h
1593 06-06-2009 06:19:21 8.4 C 6.19 g/m*3 8.4 C 0 km/h
1594 06-06-2009 06:31:21 8.7 C 6.23 g/m*3 8.7 C 0 km/h
1595 06-06-2009 06:43:21 8.7 C 6.05 g/m*3 8.7 C 0 km/h
1596 06-06-2009 06:55:21 8.9 C 6.13 g/m*3 8.9 C 0 km/h
1597 06-06-2009 07:07:21 8.9 C 6.13 g/m*3 8.9 C 0 km/h
1598 06-06-2009 07:19:21 8.9 C 6.13 g/m*3 8.9 C 0 km/h
1599 06-06-2009 07:31:21 8.6 C 6.27 g/m*3 8.6 C 0 km/h
1600 06-06-2009 07:43:21 8.6 C 6.44 g/m*3 8.6 C 0 km/h
Sensor: Nr:Datum:Temp:Abs-Feuchte:Windchill:Wind:
Aussen-T/F 1601 06-06-2009 07:55:21 8.6 C 6.62 g/m*3 8.6 C 0 km/h
1602 06-06-2009 08:07:22 8.6 C 6.79 g/m*3 8.6 C 0 km/h
1603 06-06-2009 08:19:22 8.6 C 6.96 g/m*3 8.6 C 0 km/h
1604 06-06-2009 08:31:22 8.3 C 7.08 g/m*3 8.3 C 0 km/h
1605 06-06-2009 08:43:22 8.3 C 7.33 g/m*3 8.3 C 0 km/h
1606 06-06-2009 08:55:22 8.2 C 7.37 g/m*3 8.2 C 0 km/h
1607 06-06-2009 09:07:19 8.5 C 7.6 g/m*3 8.5 C 0 km/h
1608 06-06-2009 09:19:19 8.4 C 7.63 g/m*3 8.4 C 0 km/h
1609 06-06-2009 09:31:20 8.7 C 7.78 g/m*3 8.7 C 0 km/h
1610 06-06-2009 09:43:20 8.7 C 7.87 g/m*3 8.7 C 0 km/h
1611 06-06-2009 09:55:19 8.9 C 7.97 g/m*3 8.9 C 0 km/h
1612 06-06-2009 10:07:19 9.1 C 7.99 g/m*3 9.1 C 0 km/h
1613 06-06-2009 10:19:19 9.1 C 7.99 g/m*3 9.1 C 0 km/h
1614 06-06-2009 10:31:19 8.9 C 7.97 g/m*3 8.9 C 0 km/h
1615 06-06-2009 10:43:19 9 C 7.93 g/m*3 9 C 0 km/h
1616 06-06-2009 10:55:18 9 C 7.93 g/m*3 9 C 0 km/h
1617 06-06-2009 11:07:19 9 C 7.93 g/m*3 9 C 0 km/h
1618 06-06-2009 11:19:18 9 C 7.93 g/m*3 9 C 0 km/h
1619 06-06-2009 11:31:18 9.2 C 8.13 g/m*3 9.2 C 0 km/h
1620 06-06-2009 11:43:18 9.2 C 8.13 g/m*3 9.2 C 0 km/h
1621 06-06-2009 11:55:18 9 C 8.02 g/m*3 9 C 0 km/h
1622 06-06-2009 12:07:17 9.2 C 8.13 g/m*3 9.2 C 0 km/h
1623 06-06-2009 12:19:18 9.4 C 8.32 g/m*3 9.4 C 0 km/h
1624 06-06-2009 12:31:18 9.3 C 8.27 g/m*3 9.3 C 0 km/h
1625 06-06-2009 12:43:18 9.3 C 8.27 g/m*3 9.3 C 0 km/h
Sensor: Nr:Datum:Temp:Abs-Feuchte:Windchill:Wind:
Aussen-T/F 1626 06-06-2009 12:55:17 9.5 C 8.37 g/m*3 9.5 C 0 km/h
1627 06-06-2009 13:07:18 9.6 C 8.43 g/m*3 9.6 C 0 km/h
1628 06-06-2009 13:19:17 9.7 C 8.48 g/m*3 9.7 C 0 km/h
1629 06-06-2009 13:31:17 9.7 C 8.57 g/m*3 9.7 C 0 km/h
1630 06-06-2009 13:43:17 9.7 C 8.57 g/m*3 9.7 C 0 km/h
1631 06-06-2009 13:55:17 9.6 C 8.52 g/m*3 9.6 C 0 km/h
1632 06-06-2009 14:07:17 9.8 C 8.63 g/m*3 9.8 C 0 km/h
1633 06-06-2009 14:19:16 9.8 C 8.63 g/m*3 9.8 C 0 km/h
1634 06-06-2009 14:31:16 9.8 C 8.63 g/m*3 9.8 C 0 km/h
1635 06-06-2009 14:43:16 9.6 C 8.43 g/m*3 9.6 C 0 km/h
1636 06-06-2009 14:55:16 9.5 C 8.37 g/m*3 9.5 C 0 km/h
1637 06-06-2009 15:07:16 9.5 C 8.37 g/m*3 9.5 C 0 km/h
1638 06-06-2009 15:19:15 9.4 C 8.32 g/m*3 9.4 C 0 km/h
1639 06-06-2009 15:31:16 9.5 C 8.37 g/m*3 9.5 C 0 km/h
1640 06-06-2009 15:43:16 9.7 C 8.57 g/m*3 9.7 C 0 km/h
1641 06-06-2009 15:55:15 9.8 C 8.63 g/m*3 9.8 C 0 km/h
1642 06-06-2009 16:07:15 10.1 C 8.7 g/m*3 10.1 C 0 km/h
1643 06-06-2009 16:19:16 10.1 C 8.7 g/m*3 10.1 C 0 km/h
1644 06-06-2009 16:31:15 9.9 C 8.68 g/m*3 9.9 C 0 km/h
1645 06-06-2009 16:43:15 10 C 8.64 g/m*3 10 C 0 km/h
1646 06-06-2009 16:55:15 9.9 C 8.68 g/m*3 9.9 C 0 km/h
1647 06-06-2009 17:07:15 9.9 C 8.59 g/m*3 9.9 C 0 km/h
1648 06-06-2009 17:19:15 9.9 C 8.59 g/m*3 9.9 C 0 km/h
1649 06-06-2009 17:31:14 10.1 C 8.61 g/m*3 10.1 C 0 km/h
1650 06-06-2009 17:43:14 10.3 C 8.71 g/m*3 10.3 C 0 km/h
Sensor: Nr:Datum:Temp:Abs-Feuchte:Windchill:Wind:
Aussen-T/F 1651 06-06-2009 17:55:15 10.4 C 8.67 g/m*3 10.4 C 0 km/h
1652 06-06-2009 18:07:14 10.5 C 8.73 g/m*3 10.5 C 0 km/h
1653 06-06-2009 18:19:14 10.9 C 8.95 g/m*3 10.9 C 0 km/h
1654 06-06-2009 18:31:02 10.7 C 8.64 g/m*3 10.7 C 0 km/h
1655 06-06-2009 18:43:02 10.8 C 8.7 g/m*3 10.8 C 0 km/h
1656 06-06-2009 18:55:01 10.7 C 8.45 g/m*3 10.7 C 0 km/h
1657 06-06-2009 19:07:02 10.8 C 8.5 g/m*3 10.8 C 0 km/h
1658 06-06-2009 19:19:01 10.9 C 8.45 g/m*3 10.9 C 0 km/h
1659 06-06-2009 19:31:01 11.1 C 8.56 g/m*3 11.1 C 0 km/h
1660 06-06-2009 19:43:01 11 C 8.51 g/m*3 11 C 0 km/h
1661 06-06-2009 19:55:01 10.9 C 8.65 g/m*3 10.9 C 0 km/h
1662 06-06-2009 20:07:01 10.5 C 8.34 g/m*3 10.5 C 0 km/h
1663 06-06-2009 20:19:00 10.4 C 8.29 g/m*3 10.4 C 0 km/h
1664 06-06-2009 20:31:00 10.4 C 8.38 g/m*3 10.4 C 0 km/h
1665 06-06-2009 20:43:00 10.4 C 8.38 g/m*3 10.4 C 0 km/h
1666 06-06-2009 20:55:00 10.3 C 8.33 g/m*3 10.3 C 0 km/h
1667 06-06-2009 21:07:00 10.3 C 8.43 g/m*3 10.3 C 0 km/h
1668 06-06-2009 21:18:59 10.2 C 8.37 g/m*3 10.2 C 0 km/h
1669 06-06-2009 21:31:00 10.2 C 8.37 g/m*3 10.2 C 0 km/h
1670 06-06-2009 21:43:00 10.1 C 8.32 g/m*3 10.1 C 0 km/h
1671 06-06-2009 21:55:59 9.8 C 8.26 g/m*3 9.8 C 0 km/h
1672 06-06-2009 22:07:59 9.5 C 8.1 g/m*3 9.5 C 0 km/h
1673 06-06-2009 22:19:00 9.4 C 8.14 g/m*3 9.4 C 0 km/h
1674 06-06-2009 22:31:59 9.4 C 8.23 g/m*3 9.4 C 0 km/h
1675 06-06-2009 22:43:59 9.5 C 8.28 g/m*3 9.5 C 0 km/h
Sensor: Nr:Datum:Temp:Abs-Feuchte:Windchill:Wind:
Aussen-T/F 1676 06-06-2009 22:55:59 9.6 C 8.43 g/m*3 9.6 C 0 km/h
1677 06-06-2009 23:07:59 9.5 C 8.37 g/m*3 9.5 C 0 km/h
1678 06-06-2009 23:19:59 9.5 C 8.37 g/m*3 9.5 C 0 km/h
1679 06-06-2009 23:31:58 9.2 C 8.13 g/m*3 9.2 C 0 km/h
1680 06-06-2009 23:43:58 8.8 C 8.01 g/m*3 8.8 C 0 km/h
1681 06-06-2009 23:55:59 8.5 C 7.85 g/m*3 8.5 C 0 km/h

Legende:
   Min
   Max


Maximal/Minimal-Werte vom 24.05.2009 - 06.06.2009

Sensor Min Max Avg
Temp
(Aussen-T/F)
7.1 °C
06-06-2009  04:43:21
33.6 °C
25-05-2009  15:58:59
17.44 °C
Abs-Feuchte
(Aussen-T/F)
3.04 g/m*3
29-05-2009  11:23:28
12.92 g/m*3
25-05-2009  17:46:58
7.01 g/m*3
Windchill
(Aussen-T/F)
7.1 C
06-06-2009  04:43:21
33.6 C
25-05-2009  15:58:59
17.43 C

Die Daten stammen von einer Davis Vantage Pro 2 Wetter-Station und werden unter Linux mit der Software wview2wettercgi und aufbereitet. Alle Angaben erfolgen ohne Gewähr für ihre Vollständigkeit oder Richtigkeit.
Kontakt: Rainer Krienke krienke@uni-koblenz.de . Meine Webseiten an der Uni Koblenz oder privat.
Version: $Revision: 0.78 $